Darstellungsparameter: Aktuell verwendete Einstellungen:
Skalierung der Graphiken ... ?
xyx+y,   Skalierungsfaktor:      Skalierung: Modus: x, Faktor: 1
Darstellungszeitraum ... ?
Vom - - bis: - -   Zeitraum: 06.08.2014 - 12.08.2014
Min/Max/Avg-Anzeige ... ?
Zeige MMA aktuell
Zeige MMA Monat
Zeige MMA alles
Zeige --A aktuell
Zeige --A Monat
Zeige --A alles
Keine MMA-Anzeige
MMA:
Minimum Maximum Average (ber die Originaldaten)
MMA-Basis: 06.08.2014 - 12.08.2014
Quicknavigation für Darstellung... ?
Tage:      1T, 2T, 3T, 5T -1T -2T -3T -5T +1T +2T +3T +5T
Wochen: 1W, 2W, 3W -1W -2W -3W +1W +2W +3W
Monate: 1M, 3M, 6M -1M -3M -6M +1M +3M +6M
Jahre:    1J, 3J, 5J, 10J -1J -3J -5J -10J +1J +3J +5J +10J
Nutze für die Darstellung ... ?
Originaldaten oder Mittelwerte auf ...
Stundenbasis Tagesbasis Wochenbasis
Monatsbasis Jahresbasis      Datenbasis: Original-Daten
Darstellen als:
Statistik (Auto) Statistik J:M      Darstellung:
Zur Graphik,    zurück zur Übersicht aller Sensoren.
 
Tabellarische Datenbersicht: ?
 
Sensor: Nr:Datum:Temp:Feuchte:Taupunkt:
Aussen-T/F 1 06-08-2014 00:00:00 15.6 C 90 % 13.97 C
2 06-08-2014 00:05:00 15.4 C 90 % 13.77 C
3 06-08-2014 00:10:00 15.4 C 90 % 13.77 C
4 06-08-2014 00:15:00 15.3 C 90 % 13.67 C
5 06-08-2014 00:20:00 15.3 C 91 % 13.84 C
6 06-08-2014 00:25:00 15.2 C 91 % 13.74 C
7 06-08-2014 00:30:00 15.2 C 91 % 13.74 C
8 06-08-2014 00:35:00 15.1 C 91 % 13.64 C
9 06-08-2014 00:40:00 14.9 C 91 % 13.44 C
10 06-08-2014 00:45:00 14.9 C 92 % 13.61 C
11 06-08-2014 00:50:00 14.8 C 92 % 13.51 C
12 06-08-2014 00:55:00 14.8 C 92 % 13.51 C
13 06-08-2014 01:00:00 14.8 C 92 % 13.51 C
14 06-08-2014 01:05:00 14.7 C 92 % 13.41 C
15 06-08-2014 01:10:00 14.6 C 92 % 13.32 C
16 06-08-2014 01:15:00 14.6 C 92 % 13.32 C
17 06-08-2014 01:20:00 14.4 C 92 % 13.12 C
18 06-08-2014 01:25:00 14.4 C 92 % 13.12 C
19 06-08-2014 01:30:00 14.4 C 92 % 13.12 C
20 06-08-2014 01:35:00 14.3 C 93 % 13.18 C
21 06-08-2014 01:40:00 14.3 C 93 % 13.18 C
22 06-08-2014 01:45:00 14.3 C 93 % 13.18 C
23 06-08-2014 01:50:00 14.2 C 93 % 13.08 C
24 06-08-2014 01:55:00 14.2 C 93 % 13.08 C
25 06-08-2014 02:00:00 14.2 C 93 % 13.08 C
Sensor: Nr:Datum:Temp:Feuchte:Taupunkt:
Aussen-T/F 26 06-08-2014 02:05:00 14.1 C 93 % 12.99 C
27 06-08-2014 02:10:00 14.1 C 93 % 12.99 C
28 06-08-2014 02:15:00 14 C 93 % 12.89 C
29 06-08-2014 02:20:00 13.9 C 93 % 12.79 C
30 06-08-2014 02:25:00 13.9 C 93 % 12.79 C
31 06-08-2014 02:30:00 13.8 C 93 % 12.69 C
32 06-08-2014 02:35:00 13.8 C 93 % 12.69 C
33 06-08-2014 02:40:00 13.8 C 94 % 12.85 C
34 06-08-2014 02:45:00 13.7 C 94 % 12.75 C
35 06-08-2014 02:50:00 13.7 C 94 % 12.75 C
36 06-08-2014 02:55:00 13.7 C 94 % 12.75 C
37 06-08-2014 03:00:00 13.6 C 94 % 12.65 C
38 06-08-2014 03:05:00 13.6 C 94 % 12.65 C
39 06-08-2014 03:10:00 13.6 C 94 % 12.65 C
40 06-08-2014 03:15:00 13.6 C 94 % 12.65 C
41 06-08-2014 03:20:00 13.5 C 94 % 12.55 C
42 06-08-2014 03:25:00 13.5 C 94 % 12.55 C
43 06-08-2014 03:30:00 13.6 C 95 % 12.81 C
44 06-08-2014 03:35:00 13.6 C 95 % 12.81 C
45 06-08-2014 03:40:00 13.5 C 95 % 12.72 C
46 06-08-2014 03:45:00 13.5 C 95 % 12.72 C
47 06-08-2014 03:50:00 13.4 C 94 % 12.45 C
48 06-08-2014 03:55:00 13.4 C 95 % 12.62 C
49 06-08-2014 04:00:00 13.3 C 95 % 12.52 C
50 06-08-2014 04:05:00 13.3 C 95 % 12.52 C
Sensor: Nr:Datum:Temp:Feuchte:Taupunkt:
Aussen-T/F 51 06-08-2014 04:10:00 13.3 C 95 % 12.52 C
52 06-08-2014 04:15:00 13.3 C 95 % 12.52 C
53 06-08-2014 04:20:00 13.2 C 95 % 12.42 C
54 06-08-2014 04:25:00 13.2 C 95 % 12.42 C
55 06-08-2014 04:30:00 13.1 C 95 % 12.32 C
56 06-08-2014 04:35:00 13.1 C 95 % 12.32 C
57 06-08-2014 04:40:00 13 C 95 % 12.22 C
58 06-08-2014 04:45:00 13 C 95 % 12.22 C
59 06-08-2014 04:50:00 12.9 C 95 % 12.12 C
60 06-08-2014 04:55:00 12.9 C 95 % 12.12 C
61 06-08-2014 05:00:00 12.9 C 96 % 12.28 C
62 06-08-2014 05:05:00 12.9 C 96 % 12.28 C
63 06-08-2014 05:10:00 12.9 C 96 % 12.28 C
64 06-08-2014 05:15:00 12.8 C 96 % 12.18 C
65 06-08-2014 05:20:00 12.8 C 95 % 12.02 C
66 06-08-2014 05:25:00 12.7 C 96 % 12.08 C
67 06-08-2014 05:30:00 12.7 C 96 % 12.08 C
68 06-08-2014 05:35:00 12.8 C 96 % 12.18 C
69 06-08-2014 05:40:00 12.8 C 96 % 12.18 C
70 06-08-2014 05:45:00 12.8 C 96 % 12.18 C
71 06-08-2014 05:50:00 12.8 C 96 % 12.18 C
72 06-08-2014 05:55:00 12.7 C 96 % 12.08 C
73 06-08-2014 06:00:00 12.6 C 96 % 11.98 C
74 06-08-2014 06:05:00 12.6 C 96 % 11.98 C
75 06-08-2014 06:10:00 12.7 C 96 % 12.08 C
Sensor: Nr:Datum:Temp:Feuchte:Taupunkt:
Aussen-T/F 76 06-08-2014 06:15:00 12.7 C 96 % 12.08 C
77 06-08-2014 06:20:00 12.7 C 96 % 12.08 C
78 06-08-2014 06:25:00 12.8 C 96 % 12.18 C
79 06-08-2014 06:30:00 12.8 C 96 % 12.18 C
80 06-08-2014 06:35:00 12.8 C 96 % 12.18 C
81 06-08-2014 06:40:00 12.8 C 97 % 12.34 C
82 06-08-2014 06:45:00 12.8 C 97 % 12.34 C
83 06-08-2014 06:50:00 12.9 C 96 % 12.28 C
84 06-08-2014 06:55:00 12.9 C 96 % 12.28 C
85 06-08-2014 07:00:00 12.9 C 96 % 12.28 C
86 06-08-2014 07:05:00 12.9 C 97 % 12.44 C
87 06-08-2014 07:10:00 12.9 C 96 % 12.28 C
88 06-08-2014 07:15:00 12.9 C 96 % 12.28 C
89 06-08-2014 07:20:00 12.9 C 97 % 12.44 C
90 06-08-2014 07:25:00 13 C 97 % 12.54 C
91 06-08-2014 07:30:00 13 C 97 % 12.54 C
92 06-08-2014 07:35:00 13 C 97 % 12.54 C
93 06-08-2014 07:40:00 13.1 C 97 % 12.63 C
94 06-08-2014 07:45:00 13.2 C 97 % 12.73 C
95 06-08-2014 07:50:00 13.1 C 97 % 12.63 C
96 06-08-2014 07:55:00 13.2 C 97 % 12.73 C
97 06-08-2014 08:00:00 13.2 C 97 % 12.73 C
98 06-08-2014 08:05:00 13.2 C 97 % 12.73 C
99 06-08-2014 08:10:00 13.2 C 97 % 12.73 C
100 06-08-2014 08:15:00 13.3 C 97 % 12.83 C
Sensor: Nr:Datum:Temp:Feuchte:Taupunkt:
Aussen-T/F 101 06-08-2014 08:20:00 13.3 C 97 % 12.83 C
102 06-08-2014 08:25:00 13.3 C 97 % 12.83 C
103 06-08-2014 08:30:00 13.4 C 97 % 12.93 C
104 06-08-2014 08:35:00 13.6 C 97 % 13.13 C
105 06-08-2014 08:40:00 13.6 C 97 % 13.13 C
106 06-08-2014 08:45:00 13.7 C 97 % 13.23 C
107 06-08-2014 08:50:00 13.8 C 97 % 13.33 C
108 06-08-2014 08:55:00 13.9 C 97 % 13.43 C
109 06-08-2014 09:00:00 13.9 C 97 % 13.43 C
110 06-08-2014 09:05:00 14.1 C 97 % 13.63 C
111 06-08-2014 09:10:00 14.2 C 96 % 13.57 C
112 06-08-2014 09:15:00 14.3 C 96 % 13.67 C
113 06-08-2014 09:20:00 14.3 C 96 % 13.67 C
114 06-08-2014 09:25:00 14.5 C 96 % 13.87 C
115 06-08-2014 09:30:00 14.6 C 95 % 13.81 C
116 06-08-2014 09:35:00 14.7 C 95 % 13.91 C
117 06-08-2014 09:40:00 14.9 C 94 % 13.94 C
118 06-08-2014 09:45:00 15.1 C 94 % 14.14 C
119 06-08-2014 09:50:00 15.3 C 94 % 14.34 C
120 06-08-2014 09:55:00 15.5 C 93 % 14.37 C
121 06-08-2014 10:00:00 15.7 C 92 % 14.4 C
122 06-08-2014 10:05:00 15.8 C 92 % 14.5 C
123 06-08-2014 10:10:00 16 C 92 % 14.7 C
124 06-08-2014 10:15:00 16.3 C 91 % 14.83 C
125 06-08-2014 10:20:00 16.5 C 90 % 14.85 C
Sensor: Nr:Datum:Temp:Feuchte:Taupunkt:
Aussen-T/F 126 06-08-2014 10:25:00 16.7 C 90 % 15.05 C
127 06-08-2014 10:30:00 16.9 C 90 % 15.25 C
128 06-08-2014 10:35:00 17.2 C 90 % 15.55 C
129 06-08-2014 10:40:00 17.3 C 88 % 15.29 C
130 06-08-2014 10:45:00 17.5 C 89 % 15.67 C
131 06-08-2014 10:50:00 17.7 C 90 % 16.04 C
132 06-08-2014 10:55:00 17.9 C 87 % 15.71 C
133 06-08-2014 11:00:00 18.3 C 87 % 16.1 C
134 06-08-2014 11:05:00 18.7 C 87 % 16.49 C
135 06-08-2014 11:10:00 19.2 C 84 % 16.43 C
136 06-08-2014 11:15:00 19.6 C 84 % 16.82 C
137 06-08-2014 11:20:00 19.8 C 84 % 17.02 C
138 06-08-2014 11:25:00 20.1 C 83 % 17.12 C
139 06-08-2014 11:30:00 20.2 C 83 % 17.22 C
140 06-08-2014 11:35:00 20.3 C 82 % 17.13 C
141 06-08-2014 11:40:00 20.4 C 82 % 17.22 C
142 06-08-2014 11:45:00 20.6 C 82 % 17.42 C
143 06-08-2014 11:50:00 20.8 C 83 % 17.81 C
144 06-08-2014 11:55:00 21.1 C 83 % 18.1 C
145 06-08-2014 12:00:00 21.5 C 76 % 17.09 C
146 06-08-2014 12:05:00 22 C 74 % 17.15 C
147 06-08-2014 12:10:00 22.4 C 69 % 16.43 C
148 06-08-2014 12:15:00 22.7 C 72 % 17.39 C
149 06-08-2014 12:20:00 22.6 C 76 % 18.15 C
150 06-08-2014 12:25:00 22.3 C 71 % 16.79 C
Sensor: Nr:Datum:Temp:Feuchte:Taupunkt:
Aussen-T/F 151 06-08-2014 12:30:00 22.4 C 67 % 15.97 C
152 06-08-2014 12:35:00 22.7 C 71 % 17.17 C
153 06-08-2014 12:40:00 23.2 C 65 % 16.26 C
154 06-08-2014 12:45:00 23.6 C 55 % 14.03 C
155 06-08-2014 12:50:00 23.7 C 66 % 16.97 C
156 06-08-2014 12:55:00 23.9 C 55 % 14.31 C
157 06-08-2014 13:00:00 24.3 C 60 % 16.04 C
158 06-08-2014 13:05:00 24.4 C 50 % 13.31 C
159 06-08-2014 13:10:00 24.5 C 62 % 16.74 C
160 06-08-2014 13:15:00 24.2 C 50 % 13.12 C
161 06-08-2014 13:20:00 24.1 C 50 % 13.03 C
162 06-08-2014 13:25:00 24.3 C 57 % 15.24 C
163 06-08-2014 13:30:00 24.7 C 53 % 14.48 C
164 06-08-2014 13:35:00 25.1 C 47 % 13 C
165 06-08-2014 13:40:00 25.2 C 45 % 12.43 C
166 06-08-2014 13:45:00 25.2 C 53 % 14.94 C
167 06-08-2014 13:50:00 24.6 C 57 % 15.52 C
168 06-08-2014 13:55:00 24.1 C 63 % 16.62 C
169 06-08-2014 14:00:00 23.8 C 52 % 13.36 C
170 06-08-2014 14:05:00 24.2 C 50 % 13.12 C
171 06-08-2014 14:10:00 25 C 49 % 13.55 C
172 06-08-2014 14:15:00 25.4 C 49 % 13.91 C
173 06-08-2014 14:20:00 25.5 C 44 % 12.36 C
174 06-08-2014 14:25:00 25.6 C 47 % 13.45 C
175 06-08-2014 14:30:00 25.7 C 49 % 14.19 C
Sensor: Nr:Datum:Temp:Feuchte:Taupunkt:
Aussen-T/F 176 06-08-2014 14:35:00 26.1 C 44 % 12.9 C
177 06-08-2014 14:40:00 26.2 C 43 % 12.64 C
178 06-08-2014 14:45:00 26.1 C 43 % 12.55 C
179 06-08-2014 14:50:00 26.1 C 45 % 13.24 C
180 06-08-2014 14:55:00 26.1 C 47 % 13.91 C
181 06-08-2014 15:00:00 25.9 C 49 % 14.37 C
182 06-08-2014 15:05:00 25.9 C 57 % 16.73 C
183 06-08-2014 15:10:00 25.8 C 45 % 12.97 C
184 06-08-2014 15:15:00 25.6 C 52 % 15.02 C
185 06-08-2014 15:20:00 25.3 C 52 % 14.74 C
186 06-08-2014 15:25:00 25.5 C 48 % 13.69 C
187 06-08-2014 15:30:00 25.7 C 51 % 14.81 C
188 06-08-2014 15:35:00 25.2 C 61 % 17.14 C
189 06-08-2014 15:40:00 24.3 C 64 % 17.05 C
190 06-08-2014 15:45:00 23.8 C 57 % 14.77 C
191 06-08-2014 15:50:00 24.1 C 64 % 16.86 C
192 06-08-2014 15:55:00 24.1 C 55 % 14.5 C
193 06-08-2014 16:00:00 24.2 C 62 % 16.46 C
194 06-08-2014 16:05:00 24.6 C 51 % 13.79 C
195 06-08-2014 16:10:00 24.9 C 49 % 13.46 C
196 06-08-2014 16:15:00 25.3 C 59 % 16.71 C
197 06-08-2014 16:20:00 25.1 C 51 % 14.25 C
198 06-08-2014 16:25:00 25.1 C 51 % 14.25 C
199 06-08-2014 16:30:00 25.1 C 58 % 16.26 C
200 06-08-2014 16:35:00 24.5 C 67 % 17.97 C
Sensor: Nr:Datum:Temp:Feuchte:Taupunkt:
Aussen-T/F 201 06-08-2014 16:40:00 23.9 C 66 % 17.16 C
202 06-08-2014 16:45:00 23.5 C 72 % 18.16 C
203 06-08-2014 16:50:00 23.1 C 73 % 17.99 C
204 06-08-2014 16:55:00 22.7 C 74 % 17.83 C
205 06-08-2014 17:00:00 22.3 C 74 % 17.44 C
206 06-08-2014 17:05:00 22.2 C 76 % 17.77 C
207 06-08-2014 17:10:00 22.1 C 76 % 17.67 C
208 06-08-2014 17:15:00 22 C 76 % 17.57 C
209 06-08-2014 17:20:00 21.8 C 76 % 17.38 C
210 06-08-2014 17:25:00 21.6 C 78 % 17.6 C
211 06-08-2014 17:30:00 21.3 C 80 % 17.71 C
212 06-08-2014 17:35:00 21.2 C 79 % 17.41 C
213 06-08-2014 17:40:00 21.1 C 80 % 17.51 C
214 06-08-2014 17:45:00 21 C 80 % 17.42 C
215 06-08-2014 17:50:00 20.8 C 80 % 17.22 C
216 06-08-2014 17:55:00 20.7 C 80 % 17.13 C
217 06-08-2014 18:00:00 20.6 C 81 % 17.22 C
218 06-08-2014 18:05:00 20.4 C 81 % 17.03 C
219 06-08-2014 18:10:00 20.4 C 81 % 17.03 C
220 06-08-2014 18:15:00 20.4 C 81 % 17.03 C
221 06-08-2014 18:20:00 20.4 C 82 % 17.22 C
222 06-08-2014 18:25:00 20.4 C 81 % 17.03 C
223 06-08-2014 18:30:00 20.6 C 81 % 17.22 C
224 06-08-2014 18:35:00 20.6 C 81 % 17.22 C
225 06-08-2014 18:40:00 20.7 C 81 % 17.32 C
Sensor: Nr:Datum:Temp:Feuchte:Taupunkt:
Aussen-T/F 226 06-08-2014 18:45:00 20.6 C 81 % 17.22 C
227 06-08-2014 18:50:00 20.5 C 81 % 17.13 C
228 06-08-2014 18:55:00 20.4 C 81 % 17.03 C
229 06-08-2014 19:00:00 20.3 C 81 % 16.93 C
230 06-08-2014 19:05:00 20.2 C 82 % 17.03 C
231 06-08-2014 19:10:00 20 C 82 % 16.83 C
232 06-08-2014 19:15:00 19.8 C 82 % 16.64 C
233 06-08-2014 19:20:00 19.8 C 79 % 16.05 C
234 06-08-2014 19:25:00 19.7 C 80 % 16.15 C
235 06-08-2014 19:30:00 19.3 C 83 % 16.34 C
236 06-08-2014 19:35:00 18.7 C 84 % 15.94 C
237 06-08-2014 19:40:00 18.4 C 87 % 16.2 C
238 06-08-2014 19:45:00 18.1 C 88 % 16.08 C
239 06-08-2014 19:50:00 17.9 C 89 % 16.06 C
240 06-08-2014 19:55:00 17.8 C 90 % 16.14 C
241 06-08-2014 20:00:00 17.7 C 89 % 15.86 C
242 06-08-2014 20:05:00 17.6 C 90 % 15.94 C
243 06-08-2014 20:10:00 17.4 C 90 % 15.74 C
244 06-08-2014 20:15:00 17.3 C 92 % 15.99 C
245 06-08-2014 20:20:00 17.2 C 92 % 15.89 C
246 06-08-2014 20:25:00 17.1 C 92 % 15.79 C
247 06-08-2014 20:30:00 17 C 91 % 15.52 C
248 06-08-2014 20:35:00 16.9 C 92 % 15.59 C
249 06-08-2014 20:40:00 16.8 C 92 % 15.49 C
250 06-08-2014 20:45:00 16.8 C 92 % 15.49 C
Sensor: Nr:Datum:Temp:Feuchte:Taupunkt:
Aussen-T/F 251 06-08-2014 20:50:00 16.8 C 92 % 15.49 C
252 06-08-2014 20:55:00 16.7 C 92 % 15.39 C
253 06-08-2014 21:00:00 16.7 C 93 % 15.56 C
254 06-08-2014 21:05:00 16.6 C 93 % 15.46 C
255 06-08-2014 21:10:00 16.6 C 94 % 15.63 C
256 06-08-2014 21:15:00 16.6 C 94 % 15.63 C
257 06-08-2014 21:20:00 16.5 C 94 % 15.53 C
258 06-08-2014 21:25:00 16.4 C 95 % 15.6 C
259 06-08-2014 21:30:00 16.4 C 95 % 15.6 C
260 06-08-2014 21:35:00 16.3 C 95 % 15.5 C
261 06-08-2014 21:40:00 16.3 C 95 % 15.5 C
262 06-08-2014 21:45:00 16.2 C 95 % 15.4 C
263 06-08-2014 21:50:00 16.2 C 95 % 15.4 C
264 06-08-2014 21:55:00 16.2 C 95 % 15.4 C
265 06-08-2014 22:00:00 16.2 C 96 % 15.56 C
266 06-08-2014 22:05:00 16.2 C 96 % 15.56 C
267 06-08-2014 22:10:00 16.1 C 96 % 15.46 C
268 06-08-2014 22:15:00 16.1 C 96 % 15.46 C
269 06-08-2014 22:20:00 16.1 C 96 % 15.46 C
270 06-08-2014 22:25:00 16 C 96 % 15.36 C
271 06-08-2014 22:30:00 15.9 C 96 % 15.26 C
272 06-08-2014 22:35:00 15.9 C 96 % 15.26 C
273 06-08-2014 22:40:00 16 C 96 % 15.36 C
274 06-08-2014 22:45:00 16 C 96 % 15.36 C
275 06-08-2014 22:50:00 15.9 C 96 % 15.26 C
Sensor: Nr:Datum:Temp:Feuchte:Taupunkt:
Aussen-T/F 276 06-08-2014 22:55:00 15.9 C 96 % 15.26 C
277 06-08-2014 23:00:00 15.9 C 96 % 15.26 C
278 06-08-2014 23:05:00 15.9 C 96 % 15.26 C
279 06-08-2014 23:10:00 15.9 C 96 % 15.26 C
280 06-08-2014 23:15:00 15.9 C 96 % 15.26 C
281 06-08-2014 23:20:00 15.9 C 96 % 15.26 C
282 06-08-2014 23:25:00 15.9 C 96 % 15.26 C
283 06-08-2014 23:30:00 15.8 C 96 % 15.16 C
284 06-08-2014 23:35:00 15.8 C 96 % 15.16 C
285 06-08-2014 23:40:00 15.8 C 96 % 15.16 C
286 06-08-2014 23:45:00 15.8 C 96 % 15.16 C
287 06-08-2014 23:50:00 15.8 C 96 % 15.16 C
288 06-08-2014 23:55:00 15.8 C 96 % 15.16 C
289 07-08-2014 00:00:00 15.8 C 96 % 15.16 C
290 07-08-2014 00:05:00 15.7 C 96 % 15.06 C
291 07-08-2014 00:10:00 15.7 C 96 % 15.06 C
292 07-08-2014 00:15:00 15.7 C 96 % 15.06 C
293 07-08-2014 00:20:00 15.7 C 96 % 15.06 C
294 07-08-2014 00:25:00 15.6 C 96 % 14.96 C
295 07-08-2014 00:30:00 15.6 C 96 % 14.96 C
296 07-08-2014 00:35:00 15.6 C 96 % 14.96 C
297 07-08-2014 00:40:00 15.6 C 96 % 14.96 C
298 07-08-2014 00:45:00 15.6 C 96 % 14.96 C
299 07-08-2014 00:50:00 15.6 C 96 % 14.96 C
300 07-08-2014 00:55:00 15.6 C 96 % 14.96 C
Sensor: Nr:Datum:Temp:Feuchte:Taupunkt:
Aussen-T/F 301 07-08-2014 01:00:00 15.6 C 96 % 14.96 C
302 07-08-2014 01:05:00 15.6 C 96 % 14.96 C
303 07-08-2014 01:10:00 15.6 C 96 % 14.96 C
304 07-08-2014 01:15:00 15.6 C 96 % 14.96 C
305 07-08-2014 01:20:00 15.6 C 96 % 14.96 C
306 07-08-2014 01:25:00 15.6 C 96 % 14.96 C
307 07-08-2014 01:30:00 15.6 C 97 % 15.13 C
308 07-08-2014 01:35:00 15.6 C 97 % 15.13 C
309 07-08-2014 01:40:00 15.6 C 97 % 15.13 C
310 07-08-2014 01:45:00 15.6 C 97 % 15.13 C
311 07-08-2014 01:50:00 15.5 C 97 % 15.03 C
312 07-08-2014 01:55:00 15.5 C 96 % 14.86 C
313 07-08-2014 02:00:00 15.4 C 96 % 14.77 C
314 07-08-2014 02:05:00 15.4 C 97 % 14.93 C
315 07-08-2014 02:10:00 15.4 C 97 % 14.93 C
316 07-08-2014 02:15:00 15.4 C 97 % 14.93 C
317 07-08-2014 02:20:00 15.4 C 97 % 14.93 C
318 07-08-2014 02:25:00 15.4 C 97 % 14.93 C
319 07-08-2014 02:30:00 15.4 C 97 % 14.93 C
320 07-08-2014 02:35:00 15.4 C 97 % 14.93 C
321 07-08-2014 02:40:00 15.5 C 97 % 15.03 C
322 07-08-2014 02:45:00 15.5 C 97 % 15.03 C
323 07-08-2014 02:50:00 15.5 C 97 % 15.03 C
324 07-08-2014 02:55:00 15.5 C 97 % 15.03 C
325 07-08-2014 03:00:00 15.5 C 97 % 15.03 C
Sensor: Nr:Datum:Temp:Feuchte:Taupunkt:
Aussen-T/F 326 07-08-2014 03:05:00 15.5 C 97 % 15.03 C
327 07-08-2014 03:10:00 15.4 C 97 % 14.93 C
328 07-08-2014 03:15:00 15.4 C 97 % 14.93 C
329 07-08-2014 03:20:00 15.4 C 97 % 14.93 C
330 07-08-2014 03:25:00 15.4 C 97 % 14.93 C
331 07-08-2014 03:30:00 15.3 C 97 % 14.83 C
332 07-08-2014 03:35:00 15.2 C 97 % 14.73 C
333 07-08-2014 03:40:00 15.1 C 96 % 14.47 C
334 07-08-2014 03:45:00 15.1 C 97 % 14.63 C
335 07-08-2014 03:50:00 15.1 C 97 % 14.63 C
336 07-08-2014 03:55:00 15 C 97 % 14.53 C
337 07-08-2014 04:00:00 15 C 97 % 14.53 C
338 07-08-2014 04:05:00 15 C 97 % 14.53 C
339 07-08-2014 04:10:00 15.1 C 97 % 14.63 C
340 07-08-2014 04:15:00 15.1 C 97 % 14.63 C
341 07-08-2014 04:20:00 15.2 C 97 % 14.73 C
342 07-08-2014 04:25:00 15.2 C 97 % 14.73 C
343 07-08-2014 04:30:00 15.3 C 97 % 14.83 C
344 07-08-2014 04:35:00 15.3 C 97 % 14.83 C
345 07-08-2014 04:40:00 15.3 C 97 % 14.83 C
346 07-08-2014 04:45:00 15.3 C 97 % 14.83 C
347 07-08-2014 04:50:00 15.4 C 97 % 14.93 C
348 07-08-2014 04:55:00 15.4 C 97 % 14.93 C
349 07-08-2014 05:00:00 15.4 C 97 % 14.93 C
350 07-08-2014 05:05:00 15.4 C 97 % 14.93 C
Sensor: Nr:Datum:Temp:Feuchte:Taupunkt:
Aussen-T/F 351 07-08-2014 05:10:00 15.4 C 97 % 14.93 C
352 07-08-2014 05:15:00 15.5 C 97 % 15.03 C
353 07-08-2014 05:20:00 15.5 C 97 % 15.03 C
354 07-08-2014 05:25:00 15.5 C 97 % 15.03 C
355 07-08-2014 05:30:00 15.6 C 97 % 15.13 C
356 07-08-2014 05:35:00 15.6 C 97 % 15.13 C
357 07-08-2014 05:40:00 15.6 C 97 % 15.13 C
358 07-08-2014 05:45:00 15.7 C 98 % 15.38 C
359 07-08-2014 05:50:00 15.7 C 98 % 15.38 C
360 07-08-2014 05:55:00 15.7 C 98 % 15.38 C
361 07-08-2014 06:00:00 15.7 C 98 % 15.38 C
362 07-08-2014 06:05:00 15.7 C 98 % 15.38 C
363 07-08-2014 06:10:00 15.8 C 98 % 15.48 C
364 07-08-2014 06:15:00 15.8 C 98 % 15.48 C
365 07-08-2014 06:20:00 15.8 C 98 % 15.48 C
366 07-08-2014 06:25:00 15.8 C 98 % 15.48 C
367 07-08-2014 06:30:00 15.8 C 98 % 15.48 C
368 07-08-2014 06:35:00 15.8 C 98 % 15.48 C
369 07-08-2014 06:40:00 15.8 C 98 % 15.48 C
370 07-08-2014 06:45:00 15.8 C 98 % 15.48 C
371 07-08-2014 06:50:00 15.9 C 98 % 15.58 C
372 07-08-2014 06:55:00 15.9 C 98 % 15.58 C
373 07-08-2014 07:00:00 15.9 C 98 % 15.58 C
374 07-08-2014 07:05:00 15.9 C 98 % 15.58 C
375 07-08-2014 07:10:00 15.9 C 98 % 15.58 C
Sensor: Nr:Datum:Temp:Feuchte:Taupunkt:
Aussen-T/F 376 07-08-2014 07:15:00 15.9 C 98 % 15.58 C
377 07-08-2014 07:20:00 15.9 C 98 % 15.58 C
378 07-08-2014 07:25:00 15.9 C 98 % 15.58 C
379 07-08-2014 07:30:00 16 C 98 % 15.68 C
380 07-08-2014 07:35:00 16.1 C 98 % 15.78 C
381 07-08-2014 07:40:00 16.1 C 98 % 15.78 C
382 07-08-2014 07:45:00 16.2 C 98 % 15.88 C
383 07-08-2014 07:50:00 16.1 C 98 % 15.78 C
384 07-08-2014 07:55:00 16.1 C 98 % 15.78 C
385 07-08-2014 08:00:00 16.1 C 98 % 15.78 C
386 07-08-2014 08:05:00 16.1 C 98 % 15.78 C
387 07-08-2014 08:10:00 16 C 98 % 15.68 C
388 07-08-2014 08:15:00 16.1 C 98 % 15.78 C
389 07-08-2014 08:20:00 16.1 C 98 % 15.78 C
390 07-08-2014 08:25:00 16.2 C 98 % 15.88 C
391 07-08-2014 08:30:00 16.3 C 98 % 15.98 C
392 07-08-2014 08:35:00 16.3 C 98 % 15.98 C
393 07-08-2014 08:40:00 16.3 C 98 % 15.98 C
394 07-08-2014 08:45:00 16.4 C 98 % 16.08 C
395 07-08-2014 08:50:00 16.5 C 98 % 16.18 C
396 07-08-2014 08:55:00 16.6 C 98 % 16.28 C
397 07-08-2014 09:00:00 16.6 C 97 % 16.12 C
398 07-08-2014 09:05:00 16.7 C 97 % 16.22 C
399 07-08-2014 09:10:00 16.9 C 97 % 16.42 C
400 07-08-2014 09:15:00 17.1 C 97 % 16.62 C
Sensor: Nr:Datum:Temp:Feuchte:Taupunkt:
Aussen-T/F 401 07-08-2014 09:20:00 17.2 C 96 % 16.56 C
402 07-08-2014 09:25:00 17.4 C 95 % 16.59 C
403 07-08-2014 09:30:00 17.6 C 93 % 16.45 C
404 07-08-2014 09:35:00 17.6 C 92 % 16.28 C
405 07-08-2014 09:40:00 17.7 C 91 % 16.21 C
406 07-08-2014 09:45:00 17.8 C 90 % 16.14 C
407 07-08-2014 09:50:00 17.9 C 91 % 16.41 C
408 07-08-2014 09:55:00 17.9 C 92 % 16.58 C
409 07-08-2014 10:00:00 17.9 C 92 % 16.58 C
410 07-08-2014 10:05:00 18.1 C 89 % 16.26 C
411 07-08-2014 10:10:00 18.4 C 89 % 16.55 C
412 07-08-2014 10:15:00 18.6 C 87 % 16.39 C
413 07-08-2014 10:20:00 18.8 C 87 % 16.59 C
414 07-08-2014 10:25:00 18.9 C 87 % 16.69 C
415 07-08-2014 10:30:00 19 C 84 % 16.24 C
416 07-08-2014 10:35:00 19.2 C 85 % 16.62 C
417 07-08-2014 10:40:00 19.2 C 86 % 16.8 C
418 07-08-2014 10:45:00 19 C 88 % 16.97 C
419 07-08-2014 10:50:00 18.6 C 90 % 16.93 C
420 07-08-2014 10:55:00 18.4 C 92 % 17.08 C
421 07-08-2014 11:00:00 18.4 C 92 % 17.08 C
422 07-08-2014 11:05:00 18.8 C 91 % 17.3 C
423 07-08-2014 11:10:00 19.1 C 90 % 17.42 C
424 07-08-2014 11:15:00 19.2 C 86 % 16.8 C
425 07-08-2014 11:20:00 19.8 C 80 % 16.25 C
Sensor: Nr:Datum:Temp:Feuchte:Taupunkt:
Aussen-T/F 426 07-08-2014 11:25:00 20.6 C 82 % 17.42 C
427 07-08-2014 11:30:00 20.8 C 76 % 16.41 C
428 07-08-2014 11:35:00 20.9 C 78 % 16.92 C
429 07-08-2014 11:40:00 21.2 C 77 % 17.01 C
430 07-08-2014 11:45:00 21.6 C 74 % 16.77 C
431 07-08-2014 11:50:00 21.7 C 72 % 16.43 C
432 07-08-2014 11:55:00 21.9 C 71 % 16.4 C
433 07-08-2014 12:00:00 22 C 73 % 16.94 C
434 07-08-2014 12:05:00 22 C 74 % 17.15 C
435 07-08-2014 12:10:00 21.9 C 70 % 16.18 C
436 07-08-2014 12:15:00 21.8 C 71 % 16.31 C
437 07-08-2014 12:20:00 21.8 C 71 % 16.31 C
438 07-08-2014 12:25:00 21.8 C 77 % 17.59 C
439 07-08-2014 12:30:00 21.9 C 72 % 16.62 C
440 07-08-2014 12:35:00 22.2 C 77 % 17.98 C
441 07-08-2014 12:40:00 22.1 C 71 % 16.6 C
442 07-08-2014 12:45:00 22.1 C 70 % 16.37 C
443 07-08-2014 12:50:00 22.2 C 68 % 16.01 C
444 07-08-2014 12:55:00 22.4 C 71 % 16.88 C
445 07-08-2014 13:00:00 22.4 C 70 % 16.66 C
446 07-08-2014 13:05:00 22.5 C 66 % 15.83 C
447 07-08-2014 13:10:00 22.5 C 65 % 15.59 C
448 07-08-2014 13:15:00 22.6 C 68 % 16.39 C
449 07-08-2014 13:20:00 22.6 C 70 % 16.85 C
450 07-08-2014 13:25:00 22.5 C 76 % 18.06 C
Sensor: Nr:Datum:Temp:Feuchte:Taupunkt:
Aussen-T/F 451 07-08-2014 13:30:00 22.3 C 74 % 17.44 C
452 07-08-2014 13:35:00 22.4 C 67 % 15.97 C
453 07-08-2014 13:40:00 22.7 C 64 % 15.54 C
454 07-08-2014 13:45:00 22.9 C 64 % 15.73 C
455 07-08-2014 13:50:00 23.2 C 63 % 15.77 C
456 07-08-2014 13:55:00 23.2 C 61 % 15.26 C
457 07-08-2014 14:00:00 23.3 C 64 % 16.11 C
458 07-08-2014 14:05:00 23.6 C 66 % 16.88 C
459 07-08-2014 14:10:00 23.7 C 68 % 17.44 C
460 07-08-2014 14:15:00 23.5 C 76 % 19.02 C
461 07-08-2014 14:20:00 23.3 C 64 % 16.11 C
462 07-08-2014 14:25:00 23.4 C 71 % 17.84 C
463 07-08-2014 14:30:00 23.8 C 63 % 16.33 C
464 07-08-2014 14:35:00 24.2 C 59 % 15.68 C
465 07-08-2014 14:40:00 24.3 C 64 % 17.05 C
466 07-08-2014 14:45:00 24.6 C 60 % 16.32 C
467 07-08-2014 14:50:00 24.8 C 60 % 16.51 C
468 07-08-2014 14:55:00 25.1 C 64 % 17.81 C
469 07-08-2014 15:00:00 25.5 C 58 % 16.63 C
470 07-08-2014 15:05:00 25.5 C 57 % 16.36 C
471 07-08-2014 15:10:00 25.6 C 57 % 16.45 C
472 07-08-2014 15:15:00 25.6 C 58 % 16.72 C
473 07-08-2014 15:20:00 25.7 C 57 % 16.54 C
474 07-08-2014 15:25:00 25.8 C 59 % 17.18 C
475 07-08-2014 15:30:00 25.8 C 53 % 15.5 C
Sensor: Nr:Datum:Temp:Feuchte:Taupunkt:
Aussen-T/F 476 07-08-2014 15:35:00 25.8 C 54 % 15.79 C
477 07-08-2014 15:40:00 25.8 C 55 % 16.07 C
478 07-08-2014 15:45:00 25.9 C 54 % 15.88 C
479 07-08-2014 15:50:00 25.9 C 54 % 15.88 C
480 07-08-2014 15:55:00 26.1 C 55 % 16.35 C
481 07-08-2014 16:00:00 26.1 C 59 % 17.46 C
482 07-08-2014 16:05:00 26.2 C 61 % 18.08 C
483 07-08-2014 16:10:00 26.2 C 52 % 15.57 C
484 07-08-2014 16:15:00 26.3 C 51 % 15.36 C
485 07-08-2014 16:20:00 26.6 C 53 % 16.23 C
486 07-08-2014 16:25:00 26.6 C 54 % 16.53 C
487 07-08-2014 16:30:00 26.5 C 52 % 15.84 C
488 07-08-2014 16:35:00 26.2 C 51 % 15.27 C
489 07-08-2014 16:40:00 25.6 C 65 % 18.53 C
490 07-08-2014 16:45:00 24.1 C 69 % 18.06 C
491 07-08-2014 16:50:00 22.8 C 77 % 18.56 C
492 07-08-2014 16:55:00 22 C 80 % 18.39 C
493 07-08-2014 17:00:00 21.5 C 83 % 18.49 C
494 07-08-2014 17:05:00 21.3 C 84 % 18.49 C
495 07-08-2014 17:10:00 21.2 C 84 % 18.39 C
496 07-08-2014 17:15:00 21.2 C 85 % 18.58 C
497 07-08-2014 17:20:00 21.2 C 85 % 18.58 C
498 07-08-2014 17:25:00 21.1 C 85 % 18.48 C
499 07-08-2014 17:30:00 21 C 84 % 18.19 C
500 07-08-2014 17:35:00 20.9 C 85 % 18.28 C
Sensor: Nr:Datum:Temp:Feuchte:Taupunkt:
Aussen-T/F 501 07-08-2014 17:40:00 20.9 C 87 % 18.65 C
502 07-08-2014 17:45:00 20.9 C 87 % 18.65 C
503 07-08-2014 17:50:00 20.9 C 86 % 18.47 C
504 07-08-2014 17:55:00 20.9 C 86 % 18.47 C
505 07-08-2014 18:00:00 21 C 86 % 18.57 C
506 07-08-2014 18:05:00 21.1 C 86 % 18.67 C
507 07-08-2014 18:10:00 21.1 C 85 % 18.48 C
508 07-08-2014 18:15:00 21.1 C 86 % 18.67 C
509 07-08-2014 18:20:00 21.6 C 87 % 19.34 C
510 07-08-2014 18:25:00 22.3 C 76 % 17.86 C
511 07-08-2014 18:30:00 22.9 C 78 % 18.86 C
512 07-08-2014 18:35:00 23.2 C 77 % 18.94 C
513 07-08-2014 18:40:00 23.6 C 72 % 18.26 C
514 07-08-2014 18:45:00 24.1 C 74 % 19.17 C
515 07-08-2014 18:50:00 24.2 C 74 % 19.27 C
516 07-08-2014 18:55:00 23.9 C 74 % 18.98 C
517 07-08-2014 19:00:00 23.6 C 76 % 19.12 C
518 07-08-2014 19:05:00 23.4 C 77 % 19.14 C
519 07-08-2014 19:10:00 23.2 C 77 % 18.94 C
520 07-08-2014 19:15:00 22.9 C 78 % 18.86 C
521 07-08-2014 19:20:00 22.7 C 79 % 18.87 C
522 07-08-2014 19:25:00 22.5 C 80 % 18.88 C
523 07-08-2014 19:30:00 22.2 C 80 % 18.58 C
524 07-08-2014 19:35:00 21.9 C 81 % 18.49 C
525 07-08-2014 19:40:00 21.8 C 83 % 18.78 C
Sensor: Nr:Datum:Temp:Feuchte:Taupunkt:
Aussen-T/F 526 07-08-2014 19:45:00 21.6 C 82 % 18.39 C
527 07-08-2014 19:50:00 21.4 C 84 % 18.58 C
528 07-08-2014 19:55:00 21.4 C 83 % 18.39 C
529 07-08-2014 20:00:00 21.3 C 83 % 18.29 C
530 07-08-2014 20:05:00 21.2 C 84 % 18.39 C
531 07-08-2014 20:10:00 20.9 C 83 % 17.9 C
532 07-08-2014 20:15:00 20.6 C 84 % 17.8 C
533 07-08-2014 20:20:00 20.3 C 85 % 17.7 C
534 07-08-2014 20:25:00 20.1 C 86 % 17.68 C
535 07-08-2014 20:30:00 19.9 C 86 % 17.49 C
536 07-08-2014 20:35:00 19.8 C 86 % 17.39 C
537 07-08-2014 20:40:00 19.6 C 87 % 17.38 C
538 07-08-2014 20:45:00 19.4 C 87 % 17.18 C
539 07-08-2014 20:50:00 19.2 C 87 % 16.98 C
540 07-08-2014 20:55:00 19.1 C 87 % 16.89 C
541 07-08-2014 21:00:00 18.9 C 88 % 16.87 C
542 07-08-2014 21:05:00 18.8 C 88 % 16.77 C
543 07-08-2014 21:10:00 18.7 C 88 % 16.67 C
544 07-08-2014 21:15:00 18.6 C 88 % 16.57 C
545 07-08-2014 21:20:00 18.6 C 88 % 16.57 C
546 07-08-2014 21:25:00 18.5 C 89 % 16.65 C
547 07-08-2014 21:30:00 18.4 C 89 % 16.55 C
548 07-08-2014 21:35:00 18.4 C 89 % 16.55 C
549 07-08-2014 21:40:00 18.3 C 90 % 16.63 C
550 07-08-2014 21:45:00 18.2 C 90 % 16.53 C
Sensor: Nr:Datum:Temp:Feuchte:Taupunkt:
Aussen-T/F 551 07-08-2014 21:50:00 18.1 C 89 % 16.26 C
552 07-08-2014 21:55:00 18.1 C 90 % 16.43 C
553 07-08-2014 22:00:00 18 C 89 % 16.16 C
554 07-08-2014 22:05:00 17.9 C 89 % 16.06 C
555 07-08-2014 22:10:00 17.8 C 90 % 16.14 C
556 07-08-2014 22:15:00 17.8 C 90 % 16.14 C
557 07-08-2014 22:20:00 17.7 C 90 % 16.04 C
558 07-08-2014 22:25:00 17.6 C 90 % 15.94 C
559 07-08-2014 22:30:00 17.6 C 91 % 16.11 C
560 07-08-2014 22:35:00 17.4 C 91 % 15.92 C
561 07-08-2014 22:40:00 17.4 C 91 % 15.92 C
562 07-08-2014 22:45:00 17.3 C 91 % 15.82 C
563 07-08-2014 22:50:00 17.2 C 91 % 15.72 C
564 07-08-2014 22:55:00 17.1 C 91 % 15.62 C
565 07-08-2014 23:00:00 17 C 91 % 15.52 C
566 07-08-2014 23:05:00 16.9 C 92 % 15.59 C
567 07-08-2014 23:10:00 16.9 C 92 % 15.59 C
568 07-08-2014 23:15:00 16.9 C 92 % 15.59 C
569 07-08-2014 23:20:00 16.8 C 92 % 15.49 C
570 07-08-2014 23:25:00 16.8 C 92 % 15.49 C
571 07-08-2014 23:30:00 16.8 C 92 % 15.49 C
572 07-08-2014 23:35:00 16.8 C 92 % 15.49 C
573 07-08-2014 23:40:00 16.7 C 92 % 15.39 C
574 07-08-2014 23:45:00 16.6 C 92 % 15.3 C
575 07-08-2014 23:50:00 16.5 C 93 % 15.36 C
Sensor: Nr:Datum:Temp:Feuchte:Taupunkt:
Aussen-T/F 576 07-08-2014 23:55:00 16.4 C 93 % 15.27 C
577 08-08-2014 00:00:00 16.4 C 93 % 15.27 C
578 08-08-2014 00:05:00 16.3 C 93 % 15.17 C
579 08-08-2014 00:10:00 16.3 C 93 % 15.17 C
580 08-08-2014 00:15:00 16.2 C 93 % 15.07 C
581 08-08-2014 00:20:00 16.1 C 93 % 14.97 C
582 08-08-2014 00:25:00 16.1 C 93 % 14.97 C
583 08-08-2014 00:30:00 16.1 C 93 % 14.97 C
584 08-08-2014 00:35:00 16 C 93 % 14.87 C
585 08-08-2014 00:40:00 15.9 C 93 % 14.77 C
586 08-08-2014 00:45:00 15.9 C 94 % 14.94 C
587 08-08-2014 00:50:00 15.8 C 94 % 14.84 C
588 08-08-2014 00:55:00 15.8 C 94 % 14.84 C
589 08-08-2014 01:00:00 15.7 C 94 % 14.74 C
590 08-08-2014 01:05:00 15.7 C 94 % 14.74 C
591 08-08-2014 01:10:00 15.7 C 94 % 14.74 C
592 08-08-2014 01:15:00 15.6 C 94 % 14.64 C
593 08-08-2014 01:20:00 15.6 C 94 % 14.64 C
594 08-08-2014 01:25:00 15.6 C 94 % 14.64 C
595 08-08-2014 01:30:00 15.6 C 94 % 14.64 C
596 08-08-2014 01:35:00 15.5 C 94 % 14.54 C
597 08-08-2014 01:40:00 15.4 C 94 % 14.44 C
598 08-08-2014 01:45:00 15.4 C 95 % 14.6 C
599 08-08-2014 01:50:00 15.4 C 95 % 14.6 C
600 08-08-2014 01:55:00 15.3 C 95 % 14.5 C
Sensor: Nr:Datum:Temp:Feuchte:Taupunkt:
Aussen-T/F 601 08-08-2014 02:00:00 15.3 C 95 % 14.5 C
602 08-08-2014 02:05:00 15.3 C 95 % 14.5 C
603 08-08-2014 02:10:00 15.3 C 95 % 14.5 C
604 08-08-2014 02:15:00 15.3 C 95 % 14.5 C
605 08-08-2014 02:20:00 15.2 C 95 % 14.4 C
606 08-08-2014 02:25:00 15.2 C 95 % 14.4 C
607 08-08-2014 02:30:00 15.2 C 95 % 14.4 C
608 08-08-2014 02:35:00 15.2 C 95 % 14.4 C
609 08-08-2014 02:40:00 15.1 C 95 % 14.31 C
610 08-08-2014 02:45:00 15 C 95 % 14.21 C
611 08-08-2014 02:50:00 14.9 C 95 % 14.11 C
612 08-08-2014 02:55:00 14.9 C 95 % 14.11 C
613 08-08-2014 03:00:00 14.9 C 95 % 14.11 C
614 08-08-2014 03:05:00 14.9 C 95 % 14.11 C
615 08-08-2014 03:10:00 14.9 C 96 % 14.27 C
616 08-08-2014 03:15:00 14.9 C 96 % 14.27 C
617 08-08-2014 03:20:00 14.8 C 96 % 14.17 C
618 08-08-2014 03:25:00 14.8 C 96 % 14.17 C
619 08-08-2014 03:30:00 14.8 C 96 % 14.17 C
620 08-08-2014 03:35:00 14.8 C 96 % 14.17 C
621 08-08-2014 03:40:00 14.8 C 96 % 14.17 C
622 08-08-2014 03:45:00 14.7 C 96 % 14.07 C
623 08-08-2014 03:50:00 14.7 C 96 % 14.07 C
624 08-08-2014 03:55:00 14.7 C 96 % 14.07 C
625 08-08-2014 04:00:00 14.6 C 96 % 13.97 C
Sensor: Nr:Datum:Temp:Feuchte:Taupunkt:
Aussen-T/F 626 08-08-2014 04:05:00 14.6 C 96 % 13.97 C
627 08-08-2014 04:10:00 14.6 C 96 % 13.97 C
628 08-08-2014 04:15:00 14.5 C 96 % 13.87 C
629 08-08-2014 04:20:00 14.5 C 96 % 13.87 C
630 08-08-2014 04:25:00 14.4 C 96 % 13.77 C
631 08-08-2014 04:30:00 14.4 C 96 % 13.77 C
632 08-08-2014 04:35:00 14.4 C 96 % 13.77 C
633 08-08-2014 04:40:00 14.4 C 96 % 13.77 C
634 08-08-2014 04:45:00 14.3 C 96 % 13.67 C
635 08-08-2014 04:50:00 14.3 C 96 % 13.67 C
636 08-08-2014 04:55:00 14.2 C 96 % 13.57 C
637 08-08-2014 05:00:00 14.2 C 96 % 13.57 C
638 08-08-2014 05:05:00 14.2 C 97 % 13.73 C
639 08-08-2014 05:10:00 14.3 C 97 % 13.83 C
640 08-08-2014 05:15:00 14.4 C 97 % 13.93 C
641 08-08-2014 05:20:00 14.3 C 96 % 13.67 C
642 08-08-2014 05:25:00 14.3 C 97 % 13.83 C
643 08-08-2014 05:30:00 14.2 C 97 % 13.73 C
644 08-08-2014 05:35:00 14.2 C 97 % 13.73 C
645 08-08-2014 05:40:00 14.3 C 97 % 13.83 C
646 08-08-2014 05:45:00 14.3 C 97 % 13.83 C
647 08-08-2014 05:50:00 14.3 C 97 % 13.83 C
648 08-08-2014 05:55:00 14.3 C 97 % 13.83 C
649 08-08-2014 06:00:00 14.3 C 97 % 13.83 C
650 08-08-2014 06:05:00 14.4 C 97 % 13.93 C
Sensor: Nr:Datum:Temp:Feuchte:Taupunkt:
Aussen-T/F 651 08-08-2014 06:10:00 14.4 C 97 % 13.93 C
652 08-08-2014 06:15:00 14.5 C 97 % 14.03 C
653 08-08-2014 06:20:00 14.6 C 97 % 14.13 C
654 08-08-2014 06:25:00 14.6 C 97 % 14.13 C
655 08-08-2014 06:30:00 14.7 C 97 % 14.23 C
656 08-08-2014 06:35:00 14.7 C 97 % 14.23 C
657 08-08-2014 06:40:00 14.7 C 97 % 14.23 C
658 08-08-2014 06:45:00 14.7 C 97 % 14.23 C
659 08-08-2014 06:50:00 14.7 C 97 % 14.23 C
660 08-08-2014 06:55:00 14.7 C 97 % 14.23 C
661 08-08-2014 07:00:00 14.8 C 97 % 14.33 C
662 08-08-2014 07:05:00 14.8 C 97 % 14.33 C
663 08-08-2014 07:10:00 14.8 C 97 % 14.33 C
664 08-08-2014 07:15:00 14.8 C 97 % 14.33 C
665 08-08-2014 07:20:00 14.9 C 97 % 14.43 C
666 08-08-2014 07:25:00 14.9 C 97 % 14.43 C
667 08-08-2014 07:30:00 15.1 C 97 % 14.63 C
668 08-08-2014 07:35:00 15.2 C 97 % 14.73 C
669 08-08-2014 07:40:00 15.2 C 97 % 14.73 C
670 08-08-2014 07:45:00 15.3 C 97 % 14.83 C
671 08-08-2014 07:50:00 15.3 C 97 % 14.83 C
672 08-08-2014 07:55:00 15.4 C 97 % 14.93 C
673 08-08-2014 08:00:00 15.4 C 97 % 14.93 C
674 08-08-2014 08:05:00 15.4 C 97 % 14.93 C
675 08-08-2014 08:10:00 15.6 C 97 % 15.13 C
Sensor: Nr:Datum:Temp:Feuchte:Taupunkt:
Aussen-T/F 676 08-08-2014 08:15:00 15.6 C 97 % 15.13 C
677 08-08-2014 08:20:00 15.7 C 97 % 15.23 C
678 08-08-2014 08:25:00 15.7 C 97 % 15.23 C
679 08-08-2014 08:30:00 15.7 C 96 % 15.06 C
680 08-08-2014 08:35:00 15.7 C 96 % 15.06 C
681 08-08-2014 08:40:00 15.8 C 96 % 15.16 C
682 08-08-2014 08:45:00 15.8 C 96 % 15.16 C
683 08-08-2014 08:50:00 15.9 C 96 % 15.26 C
684 08-08-2014 08:55:00 15.9 C 96 % 15.26 C
685 08-08-2014 09:00:00 16 C 96 % 15.36 C
686 08-08-2014 09:05:00 16.1 C 96 % 15.46 C
687 08-08-2014 09:10:00 16.2 C 96 % 15.56 C
688 08-08-2014 09:15:00 16.3 C 96 % 15.66 C
689 08-08-2014 09:20:00 16.4 C 96 % 15.76 C
690 08-08-2014 09:25:00 16.5 C 96 % 15.86 C
691 08-08-2014 09:30:00 16.6 C 96 % 15.96 C
692 08-08-2014 09:35:00 16.8 C 96 % 16.16 C
693 08-08-2014 09:40:00 16.9 C 96 % 16.26 C
694 08-08-2014 09:45:00 17 C 96 % 16.36 C
695 08-08-2014 09:50:00 17.2 C 95 % 16.39 C
696 08-08-2014 09:55:00 17.3 C 95 % 16.49 C
697 08-08-2014 10:00:00 17.4 C 95 % 16.59 C
698 08-08-2014 10:05:00 17.5 C 95 % 16.69 C
699 08-08-2014 10:10:00 17.7 C 95 % 16.89 C
700 08-08-2014 10:15:00 18 C 94 % 17.02 C
Sensor: Nr:Datum:Temp:Feuchte:Taupunkt:
Aussen-T/F 701 08-08-2014 10:20:00 18.2 C 94 % 17.22 C
702 08-08-2014 10:25:00 18.3 C 94 % 17.32 C
703 08-08-2014 10:30:00 18.4 C 94 % 17.42 C
704 08-08-2014 10:35:00 18.6 C 94 % 17.62 C
705 08-08-2014 10:40:00 18.7 C 93 % 17.54 C
706 08-08-2014 10:45:00 18.9 C 91 % 17.4 C
707 08-08-2014 10:50:00 19.3 C 92 % 17.97 C
708 08-08-2014 10:55:00 19.5 C 92 % 18.17 C
709 08-08-2014 11:00:00 19.9 C 90 % 18.21 C
710 08-08-2014 11:05:00 20.6 C 86 % 18.18 C
711 08-08-2014 11:10:00 21.4 C 80 % 17.81 C
712 08-08-2014 11:15:00 21.9 C 83 % 18.88 C
713 08-08-2014 11:20:00 22.3 C 81 % 18.88 C
714 08-08-2014 11:25:00 22.8 C 76 % 18.35 C
715 08-08-2014 11:30:00 23.5 C 71 % 17.94 C
716 08-08-2014 11:35:00 23.9 C 73 % 18.76 C
717 08-08-2014 11:40:00 24.3 C 70 % 18.48 C
718 08-08-2014 11:45:00 24.7 C 67 % 18.16 C
719 08-08-2014 11:50:00 24.9 C 66 % 18.11 C
720 08-08-2014 11:55:00 25 C 65 % 17.96 C
721 08-08-2014 12:00:00 25.4 C 64 % 18.09 C
722 08-08-2014 12:05:00 25.5 C 61 % 17.43 C
723 08-08-2014 12:10:00 25.3 C 62 % 17.5 C
724 08-08-2014 12:15:00 24.9 C 63 % 17.37 C
725 08-08-2014 12:20:00 24.9 C 63 % 17.37 C
Sensor: Nr:Datum:Temp:Feuchte:Taupunkt:
Aussen-T/F 726 08-08-2014 12:25:00 25.2 C 65 % 18.15 C
727 08-08-2014 12:30:00 25.3 C 64 % 18 C
728 08-08-2014 12:35:00 25.7 C 60 % 17.35 C
729 08-08-2014 12:40:00 25.7 C 58 % 16.82 C
730 08-08-2014 12:45:00 25.7 C 65 % 18.62 C
731 08-08-2014 12:50:00 25.8 C 58 % 16.91 C
732 08-08-2014 12:55:00 26 C 62 % 18.15 C
733 08-08-2014 13:00:00 26.3 C 59 % 17.65 C
734 08-08-2014 13:05:00 26.4 C 56 % 16.92 C
735 08-08-2014 13:10:00 26.3 C 57 % 17.1 C
736 08-08-2014 13:15:00 26.3 C 56 % 16.82 C
737 08-08-2014 13:20:00 26.3 C 56 % 16.82 C
738 08-08-2014 13:25:00 26.4 C 54 % 16.34 C
739 08-08-2014 13:30:00 26.5 C 57 % 17.29 C
740 08-08-2014 13:35:00 26.7 C 54 % 16.62 C
741 08-08-2014 13:40:00 26.6 C 55 % 16.82 C
742 08-08-2014 13:45:00 26.7 C 53 % 16.33 C
743 08-08-2014 13:50:00 26.8 C 53 % 16.42 C
744 08-08-2014 13:55:00 26.8 C 55 % 17 C
745 08-08-2014 14:00:00 27.1 C 56 % 17.57 C
746 08-08-2014 14:05:00 27.3 C 54 % 17.18 C
747 08-08-2014 14:10:00 26.9 C 55 % 17.09 C
748 08-08-2014 14:15:00 26.4 C 56 % 16.92 C
749 08-08-2014 14:20:00 26.2 C 57 % 17.01 C
750 08-08-2014 14:25:00 26.1 C 58 % 17.19 C
Sensor: Nr:Datum:Temp:Feuchte:Taupunkt:
Aussen-T/F 751 08-08-2014 14:30:00 25.9 C 58 % 17 C
752 08-08-2014 14:35:00 25.8 C 66 % 18.96 C
753 08-08-2014 14:40:00 25.8 C 60 % 17.45 C
754 08-08-2014 14:45:00 25.4 C 69 % 19.3 C
755 08-08-2014 14:50:00 24.7 C 74 % 19.75 C
756 08-08-2014 14:55:00 24.7 C 75 % 19.97 C
757 08-08-2014 15:00:00 24.2 C 76 % 19.7 C
758 08-08-2014 15:05:00 23.8 C 77 % 19.52 C
759 08-08-2014 15:10:00 23.5 C 79 % 19.65 C
760 08-08-2014 15:15:00 23.3 C 80 % 19.65 C
761 08-08-2014 15:20:00 22.9 C 81 % 19.46 C
762 08-08-2014 15:25:00 22.7 C 83 % 19.66 C
763 08-08-2014 15:30:00 22.6 C 84 % 19.76 C
764 08-08-2014 15:35:00 22.4 C 84 % 19.56 C
765 08-08-2014 15:40:00 22.2 C 86 % 19.75 C
766 08-08-2014 15:45:00 21.9 C 88 % 19.82 C
767 08-08-2014 15:50:00 21.7 C 89 % 19.81 C
768 08-08-2014 15:55:00 21.6 C 90 % 19.89 C
769 08-08-2014 16:00:00 21.4 C 91 % 19.87 C
770 08-08-2014 16:05:00 21.3 C 91 % 19.77 C
771 08-08-2014 16:10:00 21.2 C 91 % 19.67 C
772 08-08-2014 16:15:00 21.2 C 92 % 19.85 C
773 08-08-2014 16:20:00 21.1 C 92 % 19.75 C
774 08-08-2014 16:25:00 21 C 92 % 19.65 C
775 08-08-2014 16:30:00 20.8 C 92 % 19.45 C
Sensor: Nr:Datum:Temp:Feuchte:Taupunkt:
Aussen-T/F 776 08-08-2014 16:35:00 20.7 C 93 % 19.53 C
777 08-08-2014 16:40:00 20.6 C 93 % 19.43 C
778 08-08-2014 16:45:00 20.5 C 93 % 19.33 C
779 08-08-2014 16:50:00 20.3 C 93 % 19.13 C
780 08-08-2014 16:55:00 20.3 C 93 % 19.13 C
781 08-08-2014 17:00:00 20.3 C 94 % 19.3 C
782 08-08-2014 17:05:00 20.2 C 94 % 19.2 C
783 08-08-2014 17:10:00 20.2 C 94 % 19.2 C
784 08-08-2014 17:15:00 20.3 C 95 % 19.47 C
785 08-08-2014 17:20:00 20.3 C 95 % 19.47 C
786 08-08-2014 17:25:00 20.3 C 95 % 19.47 C
787 08-08-2014 17:30:00 20.6 C 96 % 19.94 C
788 08-08-2014 17:35:00 20.7 C 96 % 20.04 C
789 08-08-2014 17:40:00 20.7 C 95 % 19.87 C
790 08-08-2014 17:45:00 20.7 C 95 % 19.87 C
791 08-08-2014 17:50:00 20.6 C 95 % 19.77 C
792 08-08-2014 17:55:00 20.5 C 95 % 19.67 C
793 08-08-2014 18:00:00 20.6 C 95 % 19.77 C
794 08-08-2014 18:05:00 20.5 C 95 % 19.67 C
795 08-08-2014 18:10:00 20.6 C 95 % 19.77 C
796 08-08-2014 18:15:00 20.6 C 95 % 19.77 C
797 08-08-2014 18:20:00 20.6 C 95 % 19.77 C
798 08-08-2014 18:25:00 20.7 C 95 % 19.87 C
799 08-08-2014 18:30:00 20.6 C 95 % 19.77 C
800 08-08-2014 18:35:00 20.6 C 95 % 19.77 C
Sensor: Nr:Datum:Temp:Feuchte:Taupunkt:
Aussen-T/F 801 08-08-2014 18:40:00 20.7 C 95 % 19.87 C
802 08-08-2014 18:45:00 20.6 C 95 % 19.77 C
803 08-08-2014 18:50:00 20.7 C 95 % 19.87 C
804 08-08-2014 18:55:00 20.7 C 95 % 19.87 C
805 08-08-2014 19:00:00 20.7 C 95 % 19.87 C
806 08-08-2014 19:05:00 20.6 C 95 % 19.77 C
807 08-08-2014 19:10:00 20.5 C 95 % 19.67 C
808 08-08-2014 19:15:00 20.4 C 95 % 19.57 C
809 08-08-2014 19:20:00 20.3 C 95 % 19.47 C
810 08-08-2014 19:25:00 20.3 C 95 % 19.47 C
811 08-08-2014 19:30:00 20.3 C 95 % 19.47 C
812 08-08-2014 19:35:00 20.2 C 95 % 19.37 C
813 08-08-2014 19:40:00 20.3 C 96 % 19.64 C
814 08-08-2014 19:45:00 20.2 C 95 % 19.37 C
815 08-08-2014 19:50:00 20.2 C 96 % 19.54 C
816 08-08-2014 19:55:00 20.2 C 96 % 19.54 C
817 08-08-2014 20:00:00 20.2 C 96 % 19.54 C
818 08-08-2014 20:05:00 20.2 C 96 % 19.54 C
819 08-08-2014 20:10:00 20.2 C 96 % 19.54 C
820 08-08-2014 20:15:00 20.2 C 96 % 19.54 C
821 08-08-2014 20:20:00 20.2 C 96 % 19.54 C
822 08-08-2014 20:25:00 20.1 C 96 % 19.44 C
823 08-08-2014 20:30:00 20 C 95 % 19.17 C
824 08-08-2014 20:35:00 19.9 C 95 % 19.07 C
825 08-08-2014 20:40:00 19.9 C 95 % 19.07 C
Sensor: Nr:Datum:Temp:Feuchte:Taupunkt:
Aussen-T/F 826 08-08-2014 20:45:00 19.8 C 96 % 19.14 C
827 08-08-2014 20:50:00 19.7 C 95 % 18.88 C
828 08-08-2014 20:55:00 19.7 C 95 % 18.88 C
829 08-08-2014 21:00:00 19.6 C 95 % 18.78 C
830 08-08-2014 21:05:00 19.5 C 96 % 18.84 C
831 08-08-2014 21:10:00 19.4 C 96 % 18.75 C
832 08-08-2014 21:15:00 19.3 C 95 % 18.48 C
833 08-08-2014 21:20:00 19.2 C 95 % 18.38 C
834 08-08-2014 21:25:00 19.1 C 96 % 18.45 C
835 08-08-2014 21:30:00 19.1 C 96 % 18.45 C
836 08-08-2014 21:35:00 18.9 C 96 % 18.25 C
837 08-08-2014 21:40:00 18.9 C 96 % 18.25 C
838 08-08-2014 21:45:00 18.8 C 96 % 18.15 C
839 08-08-2014 21:50:00 18.8 C 96 % 18.15 C
840 08-08-2014 21:55:00 18.8 C 96 % 18.15 C
841 08-08-2014 22:00:00 18.8 C 96 % 18.15 C
842 08-08-2014 22:05:00 18.8 C 96 % 18.15 C
843 08-08-2014 22:10:00 18.7 C 96 % 18.05 C
844 08-08-2014 22:15:00 18.7 C 96 % 18.05 C
845 08-08-2014 22:20:00 18.7 C 96 % 18.05 C
846 08-08-2014 22:25:00 18.7 C 96 % 18.05 C
847 08-08-2014 22:30:00 18.7 C 96 % 18.05 C
848 08-08-2014 22:35:00 18.8 C 96 % 18.15 C
849 08-08-2014 22:40:00 18.7 C 96 % 18.05 C
850 08-08-2014 22:45:00 18.8 C 96 % 18.15 C
Sensor: Nr:Datum:Temp:Feuchte:Taupunkt:
Aussen-T/F 851 08-08-2014 22:50:00 18.8 C 96 % 18.15 C
852 08-08-2014 22:55:00 18.8 C 96 % 18.15 C
853 08-08-2014 23:00:00 18.8 C 96 % 18.15 C
854 08-08-2014 23:05:00 18.7 C 96 % 18.05 C
855 08-08-2014 23:10:00 18.7 C 96 % 18.05 C
856 08-08-2014 23:15:00 18.7 C 96 % 18.05 C
857 08-08-2014 23:20:00 18.7 C 96 % 18.05 C
858 08-08-2014 23:25:00 18.6 C 96 % 17.95 C
859 08-08-2014 23:30:00 18.6 C 96 % 17.95 C
860 08-08-2014 23:35:00 18.6 C 96 % 17.95 C
861 08-08-2014 23:40:00 18.5 C 96 % 17.85 C
862 08-08-2014 23:45:00 18.6 C 96 % 17.95 C
863 08-08-2014 23:50:00 18.5 C 96 % 17.85 C
864 08-08-2014 23:55:00 18.5 C 96 % 17.85 C
865 09-08-2014 00:00:00 18.5 C 95 % 17.68 C
866 09-08-2014 00:05:00 18.5 C 95 % 17.68 C
867 09-08-2014 00:10:00 18.5 C 95 % 17.68 C
868 09-08-2014 00:15:00 18.5 C 95 % 17.68 C
869 09-08-2014 00:20:00 18.6 C 96 % 17.95 C
870 09-08-2014 00:25:00 18.6 C 96 % 17.95 C
871 09-08-2014 00:30:00 18.7 C 96 % 18.05 C
872 09-08-2014 00:35:00 18.7 C 96 % 18.05 C
873 09-08-2014 00:40:00 18.7 C 96 % 18.05 C
874 09-08-2014 00:45:00 18.8 C 96 % 18.15 C
875 09-08-2014 00:50:00 18.8 C 95 % 17.98 C
Sensor: Nr:Datum:Temp:Feuchte:Taupunkt:
Aussen-T/F 876 09-08-2014 00:55:00 18.8 C 95 % 17.98 C
877 09-08-2014 01:00:00 18.8 C 95 % 17.98 C
878 09-08-2014 01:05:00 18.8 C 95 % 17.98 C
879 09-08-2014 01:10:00 18.8 C 95 % 17.98 C
880 09-08-2014 01:15:00 18.8 C 95 % 17.98 C
881 09-08-2014 01:20:00 18.8 C 95 % 17.98 C
882 09-08-2014 01:25:00 18.8 C 95 % 17.98 C
883 09-08-2014 01:30:00 18.8 C 95 % 17.98 C
884 09-08-2014 01:35:00 18.8 C 95 % 17.98 C
885 09-08-2014 01:40:00 18.8 C 95 % 17.98 C
886 09-08-2014 01:45:00 18.8 C 95 % 17.98 C
887 09-08-2014 01:50:00 18.8 C 95 % 17.98 C
888 09-08-2014 01:55:00 18.8 C 95 % 17.98 C
889 09-08-2014 02:00:00 18.9 C 94 % 17.91 C
890 09-08-2014 02:05:00 18.9 C 94 % 17.91 C
891 09-08-2014 02:10:00 19 C 94 % 18.01 C
892 09-08-2014 02:15:00 19.6 C 92 % 18.26 C
893 09-08-2014 02:20:00 20.1 C 90 % 18.41 C
894 09-08-2014 02:25:00 20 C 91 % 18.49 C
895 09-08-2014 02:30:00 19.8 C 92 % 18.46 C
896 09-08-2014 02:35:00 19.6 C 93 % 18.44 C
897 09-08-2014 02:40:00 19.4 C 94 % 18.41 C
898 09-08-2014 02:45:00 19.3 C 94 % 18.31 C
899 09-08-2014 02:50:00 19.2 C 95 % 18.38 C
900 09-08-2014 02:55:00 19.1 C 95 % 18.28 C
Sensor: Nr:Datum:Temp:Feuchte:Taupunkt:
Aussen-T/F 901 09-08-2014 03:00:00 19 C 96 % 18.35 C
902 09-08-2014 03:05:00 18.9 C 96 % 18.25 C
903 09-08-2014 03:10:00 18.9 C 96 % 18.25 C
904 09-08-2014 03:15:00 18.9 C 96 % 18.25 C
905 09-08-2014 03:20:00 18.9 C 96 % 18.25 C
906 09-08-2014 03:25:00 18.9 C 96 % 18.25 C
907 09-08-2014 03:30:00 18.8 C 96 % 18.15 C
908 09-08-2014 03:35:00 18.8 C 96 % 18.15 C
909 09-08-2014 03:40:00 18.8 C 97 % 18.31 C
910 09-08-2014 03:45:00 18.8 C 97 % 18.31 C
911 09-08-2014 03:50:00 18.8 C 97 % 18.31 C
912 09-08-2014 03:55:00 18.7 C 97 % 18.21 C
913 09-08-2014 04:00:00 18.8 C 97 % 18.31 C
914 09-08-2014 04:05:00 18.8 C 97 % 18.31 C
915 09-08-2014 04:10:00 18.7 C 97 % 18.21 C
916 09-08-2014 04:15:00 18.7 C 97 % 18.21 C
917 09-08-2014 04:20:00 18.7 C 97 % 18.21 C
918 09-08-2014 04:25:00 18.7 C 97 % 18.21 C
919 09-08-2014 04:30:00 18.7 C 97 % 18.21 C
920 09-08-2014 04:35:00 18.7 C 97 % 18.21 C
921 09-08-2014 04:40:00 18.7 C 97 % 18.21 C
922 09-08-2014 04:45:00 18.6 C 97 % 18.11 C
923 09-08-2014 04:50:00 18.6 C 97 % 18.11 C
924 09-08-2014 04:55:00 18.6 C 97 % 18.11 C
925 09-08-2014 05:00:00 18.5 C 97 % 18.01 C
Sensor: Nr:Datum:Temp:Feuchte:Taupunkt:
Aussen-T/F 926 09-08-2014 05:05:00 18.4 C 97 % 17.91 C
927 09-08-2014 05:10:00 18.3 C 97 % 17.82 C
928 09-08-2014 05:15:00 18.3 C 97 % 17.82 C
929 09-08-2014 05:20:00 18.3 C 97 % 17.82 C
930 09-08-2014 05:25:00 18.3 C 97 % 17.82 C
931 09-08-2014 05:30:00 18.3 C 97 % 17.82 C
932 09-08-2014 05:35:00 18.2 C 97 % 17.72 C
933 09-08-2014 05:40:00 18.3 C 97 % 17.82 C
934 09-08-2014 05:45:00 18.3 C 96 % 17.65 C
935 09-08-2014 05:50:00 18.4 C 95 % 17.58 C
936 09-08-2014 05:55:00 18.6 C 94 % 17.62 C
937 09-08-2014 06:00:00 18.6 C 94 % 17.62 C
938 09-08-2014 06:05:00 18.6 C 93 % 17.45 C
939 09-08-2014 06:10:00 18.6 C 93 % 17.45 C
940 09-08-2014 06:15:00 18.6 C 93 % 17.45 C
941 09-08-2014 06:20:00 18.6 C 92 % 17.27 C
942 09-08-2014 06:25:00 18.6 C 92 % 17.27 C
943 09-08-2014 06:30:00 18.6 C 92 % 17.27 C
944 09-08-2014 06:35:00 18.7 C 91 % 17.2 C
945 09-08-2014 06:40:00 18.7 C 91 % 17.2 C
946 09-08-2014 06:45:00 18.7 C 91 % 17.2 C
947 09-08-2014 06:50:00 18.6 C 91 % 17.1 C
948 09-08-2014 06:55:00 18.6 C 91 % 17.1 C
949 09-08-2014 07:00:00 18.6 C 91 % 17.1 C
950 09-08-2014 07:05:00 18.6 C 91 % 17.1 C
Sensor: Nr:Datum:Temp:Feuchte:Taupunkt:
Aussen-T/F 951 09-08-2014 07:10:00 18.6 C 91 % 17.1 C
952 09-08-2014 07:15:00 18.5 C 91 % 17 C
953 09-08-2014 07:20:00 18.6 C 91 % 17.1 C
954 09-08-2014 07:25:00 18.7 C 91 % 17.2 C
955 09-08-2014 07:30:00 18.6 C 91 % 17.1 C
956 09-08-2014 07:35:00 18.6 C 91 % 17.1 C
957 09-08-2014 07:40:00 18.7 C 91 % 17.2 C
958 09-08-2014 07:45:00 18.8 C 91 % 17.3 C
959 09-08-2014 07:50:00 18.9 C 90 % 17.22 C
960 09-08-2014 07:55:00 19.1 C 90 % 17.42 C
961 09-08-2014 08:00:00 19.3 C 90 % 17.62 C
962 09-08-2014 08:05:00 19.3 C 89 % 17.44 C
963 09-08-2014 08:10:00 19.4 C 89 % 17.54 C
964 09-08-2014 08:15:00 19.4 C 89 % 17.54 C
965 09-08-2014 08:20:00 19.4 C 89 % 17.54 C
966 09-08-2014 08:25:00 19.6 C 89 % 17.74 C
967 09-08-2014 08:30:00 19.7 C 89 % 17.84 C
968 09-08-2014 08:35:00 19.7 C 89 % 17.84 C
969 09-08-2014 08:40:00 19.7 C 89 % 17.84 C
970 09-08-2014 08:45:00 19.7 C 89 % 17.84 C
971 09-08-2014 08:50:00 19.7 C 88 % 17.66 C
972 09-08-2014 08:55:00 19.9 C 87 % 17.67 C
973 09-08-2014 09:00:00 20.1 C 86 % 17.68 C
974 09-08-2014 09:05:00 20.1 C 87 % 17.87 C
975 09-08-2014 09:10:00 20 C 88 % 17.95 C
Sensor: Nr:Datum:Temp:Feuchte:Taupunkt:
Aussen-T/F 976 09-08-2014 09:15:00 19.8 C 89 % 17.93 C
977 09-08-2014 09:20:00 19.8 C 90 % 18.11 C
978 09-08-2014 09:25:00 19.7 C 90 % 18.01 C
979 09-08-2014 09:30:00 19.7 C 90 % 18.01 C
980 09-08-2014 09:35:00 19.8 C 89 % 17.93 C
981 09-08-2014 09:40:00 19.9 C 89 % 18.03 C
982 09-08-2014 09:45:00 19.9 C 89 % 18.03 C
983 09-08-2014 09:50:00 19.9 C 89 % 18.03 C
984 09-08-2014 09:55:00 19.8 C 90 % 18.11 C
985 09-08-2014 10:00:00 19.6 C 91 % 18.09 C
986 09-08-2014 10:05:00 19.4 C 90 % 17.72 C
987 09-08-2014 10:10:00 19.3 C 90 % 17.62 C
988 09-08-2014 10:15:00 19.4 C 91 % 17.89 C
989 09-08-2014 10:20:00 19.4 C 90 % 17.72 C
990 09-08-2014 10:25:00 19.6 C 91 % 18.09 C
991 09-08-2014 10:30:00 19.7 C 89 % 17.84 C
992 09-08-2014 10:35:00 19.7 C 84 % 16.92 C
993 09-08-2014 10:40:00 19.7 C 82 % 16.54 C
994 09-08-2014 10:45:00 19.6 C 81 % 16.25 C
995 09-08-2014 10:50:00 19.6 C 80 % 16.06 C
996 09-08-2014 10:55:00 19.8 C 80 % 16.25 C
997 09-08-2014 11:00:00 20.1 C 80 % 16.54 C
998 09-08-2014 11:05:00 20.3 C 78 % 16.34 C
999 09-08-2014 11:10:00 20.4 C 77 % 16.23 C
1000 09-08-2014 11:15:00 20.4 C 74 % 15.61 C
Sensor: Nr:Datum:Temp:Feuchte:Taupunkt:
Aussen-T/F 1001 09-08-2014 11:20:00 20.4 C 74 % 15.61 C
1002 09-08-2014 11:25:00 20.3 C 74 % 15.51 C
1003 09-08-2014 11:30:00 20.2 C 74 % 15.42 C
1004 09-08-2014 11:35:00 20.3 C 73 % 15.3 C
1005 09-08-2014 11:40:00 20.3 C 73 % 15.3 C
1006 09-08-2014 11:45:00 20.3 C 72 % 15.09 C
1007 09-08-2014 11:50:00 20.3 C 71 % 14.87 C
1008 09-08-2014 11:55:00 20.4 C 72 % 15.18 C
1009 09-08-2014 12:00:00 20.6 C 69 % 14.71 C
1010 09-08-2014 12:05:00 20.8 C 69 % 14.91 C
1011 09-08-2014 12:10:00 21 C 67 % 14.64 C
1012 09-08-2014 12:15:00 21.1 C 66 % 14.5 C
1013 09-08-2014 12:20:00 21.2 C 65 % 14.36 C
1014 09-08-2014 12:25:00 21.5 C 67 % 15.12 C
1015 09-08-2014 12:30:00 21.8 C 64 % 14.69 C
1016 09-08-2014 12:35:00 21.9 C 66 % 15.26 C
1017 09-08-2014 12:40:00 22.1 C 63 % 14.73 C
1018 09-08-2014 12:45:00 22.1 C 63 % 14.73 C
1019 09-08-2014 12:50:00 22.2 C 63 % 14.82 C
1020 09-08-2014 12:55:00 22.1 C 64 % 14.97 C
1021 09-08-2014 13:00:00 21.9 C 62 % 14.29 C
1022 09-08-2014 13:05:00 22.1 C 64 % 14.97 C
1023 09-08-2014 13:10:00 22.2 C 61 % 14.32 C
1024 09-08-2014 13:15:00 22.2 C 61 % 14.32 C
1025 09-08-2014 13:20:00 22.1 C 61 % 14.23 C
Sensor: Nr:Datum:Temp:Feuchte:Taupunkt:
Aussen-T/F 1026 09-08-2014 13:25:00 22.1 C 64 % 14.97 C
1027 09-08-2014 13:30:00 22.2 C 63 % 14.82 C
1028 09-08-2014 13:35:00 22.3 C 61 % 14.42 C
1029 09-08-2014 13:40:00 22.1 C 62 % 14.48 C
1030 09-08-2014 13:45:00 22 C 62 % 14.39 C
1031 09-08-2014 13:50:00 22.1 C 62 % 14.48 C
1032 09-08-2014 13:55:00 22.2 C 62 % 14.58 C
1033 09-08-2014 14:00:00 22.3 C 62 % 14.67 C
1034 09-08-2014 14:05:00 22.4 C 63 % 15.01 C
1035 09-08-2014 14:10:00 22.4 C 63 % 15.01 C
1036 09-08-2014 14:15:00 22.3 C 60 % 14.16 C
1037 09-08-2014 14:20:00 22.4 C 63 % 15.01 C
1038 09-08-2014 14:25:00 22.7 C 62 % 15.05 C
1039 09-08-2014 14:30:00 22.8 C 60 % 14.63 C
1040 09-08-2014 14:35:00 23.3 C 57 % 14.31 C
1041 09-08-2014 14:40:00 23.6 C 58 % 14.86 C
1042 09-08-2014 14:45:00 23.3 C 59 % 14.84 C
1043 09-08-2014 14:50:00 23.2 C 58 % 14.48 C
1044 09-08-2014 14:55:00 23.2 C 63 % 15.77 C
1045 09-08-2014 15:00:00 23.6 C 57 % 14.59 C
1046 09-08-2014 15:05:00 23.8 C 58 % 15.04 C
1047 09-08-2014 15:10:00 23.8 C 57 % 14.77 C
1048 09-08-2014 15:15:00 24.1 C 55 % 14.5 C
1049 09-08-2014 15:20:00 24.3 C 57 % 15.24 C
1050 09-08-2014 15:25:00 24.3 C 56 % 14.96 C
Sensor: Nr:Datum:Temp:Feuchte:Taupunkt:
Aussen-T/F 1051 09-08-2014 15:30:00 24.4 C 56 % 15.06 C
1052 09-08-2014 15:35:00 24.4 C 56 % 15.06 C
1053 09-08-2014 15:40:00 24.4 C 56 % 15.06 C
1054 09-08-2014 15:45:00 24.6 C 55 % 14.96 C
1055 09-08-2014 15:50:00 24.6 C 56 % 15.24 C
1056 09-08-2014 15:55:00 24.6 C 54 % 14.68 C
1057 09-08-2014 16:00:00 24.4 C 55 % 14.78 C
1058 09-08-2014 16:05:00 24.5 C 55 % 14.87 C
1059 09-08-2014 16:10:00 24.7 C 53 % 14.48 C
1060 09-08-2014 16:15:00 24.8 C 54 % 14.86 C
1061 09-08-2014 16:20:00 25 C 54 % 15.05 C
1062 09-08-2014 16:25:00 25.1 C 52 % 14.55 C
1063 09-08-2014 16:30:00 25.2 C 52 % 14.65 C
1064 09-08-2014 16:35:00 25.2 C 51 % 14.35 C
1065 09-08-2014 16:40:00 25.1 C 50 % 13.95 C
1066 09-08-2014 16:45:00 25 C 51 % 14.16 C
1067 09-08-2014 16:50:00 25.1 C 52 % 14.55 C
1068 09-08-2014 16:55:00 25.4 C 52 % 14.83 C
1069 09-08-2014 17:00:00 25.3 C 51 % 14.44 C
1070 09-08-2014 17:05:00 25.2 C 50 % 14.04 C
1071 09-08-2014 17:10:00 24.9 C 52 % 14.37 C
1072 09-08-2014 17:15:00 24.8 C 53 % 14.57 C
1073 09-08-2014 17:20:00 24.7 C 52 % 14.19 C
1074 09-08-2014 17:25:00 24.5 C 54 % 14.58 C
1075 09-08-2014 17:30:00 24.4 C 55 % 14.78 C
Sensor: Nr:Datum:Temp:Feuchte:Taupunkt:
Aussen-T/F 1076 09-08-2014 17:35:00 24.6 C 59 % 16.06 C
1077 09-08-2014 17:40:00 24.6 C 55 % 14.96 C
1078 09-08-2014 17:45:00 24.6 C 54 % 14.68 C
1079 09-08-2014 17:50:00 24.6 C 59 % 16.06 C
1080 09-08-2014 17:55:00 24.4 C 66 % 17.64 C
1081 09-08-2014 18:00:00 24 C 60 % 15.76 C
1082 09-08-2014 18:05:00 23.7 C 63 % 16.24 C
1083 09-08-2014 18:10:00 23.4 C 63 % 15.96 C
1084 09-08-2014 18:15:00 23.4 C 68 % 17.16 C
1085 09-08-2014 18:20:00 23.4 C 67 % 16.92 C
1086 09-08-2014 18:25:00 23.1 C 70 % 17.33 C
1087 09-08-2014 18:30:00 22.8 C 68 % 16.59 C
1088 09-08-2014 18:35:00 22.5 C 74 % 17.63 C
1089 09-08-2014 18:40:00 22.3 C 75 % 17.65 C
1090 09-08-2014 18:45:00 22.1 C 75 % 17.46 C
1091 09-08-2014 18:50:00 22.1 C 77 % 17.88 C
1092 09-08-2014 18:55:00 22.1 C 76 % 17.67 C
1093 09-08-2014 19:00:00 22.3 C 76 % 17.86 C
1094 09-08-2014 19:05:00 22.5 C 75 % 17.85 C
1095 09-08-2014 19:10:00 22.5 C 74 % 17.63 C
1096 09-08-2014 19:15:00 22.4 C 75 % 17.75 C
1097 09-08-2014 19:20:00 22.2 C 75 % 17.56 C
1098 09-08-2014 19:25:00 21.9 C 76 % 17.48 C
1099 09-08-2014 19:30:00 21.6 C 76 % 17.19 C
1100 09-08-2014 19:35:00 21.2 C 77 % 17.01 C
Sensor: Nr:Datum:Temp:Feuchte:Taupunkt:
Aussen-T/F 1101 09-08-2014 19:40:00 20.8 C 79 % 17.02 C
1102 09-08-2014 19:45:00 20.7 C 79 % 16.93 C
1103 09-08-2014 19:50:00 20.4 C 79 % 16.64 C
1104 09-08-2014 19:55:00 20.2 C 79 % 16.44 C
1105 09-08-2014 20:00:00 20 C 79 % 16.25 C
1106 09-08-2014 20:05:00 19.7 C 80 % 16.15 C
1107 09-08-2014 20:10:00 19.4 C 81 % 16.06 C
1108 09-08-2014 20:15:00 19.2 C 82 % 16.05 C
1109 09-08-2014 20:20:00 19 C 83 % 16.05 C
1110 09-08-2014 20:25:00 18.8 C 83 % 15.85 C
1111 09-08-2014 20:30:00 18.7 C 83 % 15.75 C
1112 09-08-2014 20:35:00 18.6 C 83 % 15.66 C
1113 09-08-2014 20:40:00 18.5 C 83 % 15.56 C
1114 09-08-2014 20:45:00 18.4 C 83 % 15.46 C
1115 09-08-2014 20:50:00 18.3 C 83 % 15.36 C
1116 09-08-2014 20:55:00 18.2 C 83 % 15.27 C
1117 09-08-2014 21:00:00 18.2 C 83 % 15.27 C
1118 09-08-2014 21:05:00 18 C 83 % 15.07 C
1119 09-08-2014 21:10:00 17.9 C 84 % 15.16 C
1120 09-08-2014 21:15:00 17.8 C 84 % 15.06 C
1121 09-08-2014 21:20:00 17.7 C 84 % 14.96 C
1122 09-08-2014 21:25:00 17.6 C 85 % 15.05 C
1123 09-08-2014 21:30:00 17.6 C 85 % 15.05 C
1124 09-08-2014 21:35:00 17.4 C 85 % 14.85 C
1125 09-08-2014 21:40:00 17.3 C 85 % 14.76 C
Sensor: Nr:Datum:Temp:Feuchte:Taupunkt:
Aussen-T/F 1126 09-08-2014 21:45:00 17.3 C 85 % 14.76 C
1127 09-08-2014 21:50:00 17.2 C 85 % 14.66 C
1128 09-08-2014 21:55:00 17.1 C 86 % 14.74 C
1129 09-08-2014 22:00:00 17 C 86 % 14.64 C
1130 09-08-2014 22:05:00 16.9 C 86 % 14.54 C
1131 09-08-2014 22:10:00 16.8 C 86 % 14.45 C
1132 09-08-2014 22:15:00 16.8 C 87 % 14.62 C
1133 09-08-2014 22:20:00 16.8 C 87 % 14.62 C
1134 09-08-2014 22:25:00 16.8 C 88 % 14.8 C
1135 09-08-2014 22:30:00 16.7 C 87 % 14.53 C
1136 09-08-2014 22:35:00 16.7 C 87 % 14.53 C
1137 09-08-2014 22:40:00 16.7 C 88 % 14.7 C
1138 09-08-2014 22:45:00 16.6 C 87 % 14.43 C
1139 09-08-2014 22:50:00 16.6 C 88 % 14.6 C
1140 09-08-2014 22:55:00 16.4 C 88 % 14.41 C
1141 09-08-2014 23:00:00 16.4 C 88 % 14.41 C
1142 09-08-2014 23:05:00 16.5 C 88 % 14.51 C
1143 09-08-2014 23:10:00 16.6 C 87 % 14.43 C
1144 09-08-2014 23:15:00 16.6 C 87 % 14.43 C
1145 09-08-2014 23:20:00 16.6 C 87 % 14.43 C
1146 09-08-2014 23:25:00 16.6 C 87 % 14.43 C
1147 09-08-2014 23:30:00 16.6 C 87 % 14.43 C
1148 09-08-2014 23:35:00 16.7 C 87 % 14.53 C
1149 09-08-2014 23:40:00 16.6 C 88 % 14.6 C
1150 09-08-2014 23:45:00 16.6 C 88 % 14.6 C
Sensor: Nr:Datum:Temp:Feuchte:Taupunkt:
Aussen-T/F 1151 09-08-2014 23:50:00 16.5 C 89 % 14.68 C
1152 09-08-2014 23:55:00 16.4 C 89 % 14.58 C
1153 10-08-2014 00:00:00 16.3 C 89 % 14.48 C
1154 10-08-2014 00:05:00 16.3 C 89 % 14.48 C
1155 10-08-2014 00:10:00 16.3 C 90 % 14.66 C
1156 10-08-2014 00:15:00 16.3 C 90 % 14.66 C
1157 10-08-2014 00:20:00 16.3 C 90 % 14.66 C
1158 10-08-2014 00:25:00 16.3 C 90 % 14.66 C
1159 10-08-2014 00:30:00 16.2 C 90 % 14.56 C
1160 10-08-2014 00:35:00 16.2 C 90 % 14.56 C
1161 10-08-2014 00:40:00 16.2 C 91 % 14.73 C
1162 10-08-2014 00:45:00 16.2 C 91 % 14.73 C
1163 10-08-2014 00:50:00 16.2 C 91 % 14.73 C
1164 10-08-2014 00:55:00 16.2 C 90 % 14.56 C
1165 10-08-2014 01:00:00 16.2 C 91 % 14.73 C
1166 10-08-2014 01:05:00 16.1 C 91 % 14.63 C
1167 10-08-2014 01:10:00 16.1 C 91 % 14.63 C
1168 10-08-2014 01:15:00 16.1 C 92 % 14.8 C
1169 10-08-2014 01:20:00 16.2 C 92 % 14.9 C
1170 10-08-2014 01:25:00 16.2 C 92 % 14.9 C
1171 10-08-2014 01:30:00 16.2 C 91 % 14.73 C
1172 10-08-2014 01:35:00 16.2 C 91 % 14.73 C
1173 10-08-2014 01:40:00 16.3 C 91 % 14.83 C
1174 10-08-2014 01:45:00 16.3 C 91 % 14.83 C
1175 10-08-2014 01:50:00 16.3 C 91 % 14.83 C
Sensor: Nr:Datum:Temp:Feuchte:Taupunkt:
Aussen-T/F 1176 10-08-2014 01:55:00 16.3 C 91 % 14.83 C
1177 10-08-2014 02:00:00 16.3 C 91 % 14.83 C
1178 10-08-2014 02:05:00 16.3 C 91 % 14.83 C
1179 10-08-2014 02:10:00 16.3 C 91 % 14.83 C
1180 10-08-2014 02:15:00 16.3 C 92 % 15 C
1181 10-08-2014 02:20:00 16.3 C 92 % 15 C
1182 10-08-2014 02:25:00 16.3 C 92 % 15 C
1183 10-08-2014 02:30:00 16.3 C 92 % 15 C
1184 10-08-2014 02:35:00 16.3 C 92 % 15 C
1185 10-08-2014 02:40:00 16.3 C 92 % 15 C
1186 10-08-2014 02:45:00 16.3 C 92 % 15 C
1187 10-08-2014 02:50:00 16.3 C 92 % 15 C
1188 10-08-2014 02:55:00 16.3 C 92 % 15 C
1189 10-08-2014 03:00:00 16.3 C 92 % 15 C
1190 10-08-2014 03:05:00 16.3 C 92 % 15 C
1191 10-08-2014 03:10:00 16.3 C 92 % 15 C
1192 10-08-2014 03:15:00 16.3 C 92 % 15 C
1193 10-08-2014 03:20:00 16.3 C 92 % 15 C
1194 10-08-2014 03:25:00 16.4 C 92 % 15.1 C
1195 10-08-2014 03:30:00 16.4 C 92 % 15.1 C
1196 10-08-2014 03:35:00 16.4 C 92 % 15.1 C
1197 10-08-2014 03:40:00 16.4 C 92 % 15.1 C
1198 10-08-2014 03:45:00 16.4 C 92 % 15.1 C
1199 10-08-2014 03:50:00 16.3 C 92 % 15 C
1200 10-08-2014 03:55:00 16.3 C 92 % 15 C
Sensor: Nr:Datum:Temp:Feuchte:Taupunkt:
Aussen-T/F 1201 10-08-2014 04:00:00 16.3 C 92 % 15 C
1202 10-08-2014 04:05:00 16.3 C 92 % 15 C
1203 10-08-2014 04:10:00 16.3 C 92 % 15 C
1204 10-08-2014 04:15:00 16.3 C 92 % 15 C
1205 10-08-2014 04:20:00 16.2 C 92 % 14.9 C
1206 10-08-2014 04:25:00 16.2 C 93 % 15.07 C
1207 10-08-2014 04:30:00 16.2 C 93 % 15.07 C
1208 10-08-2014 04:35:00 16.1 C 93 % 14.97 C
1209 10-08-2014 04:40:00 16.1 C 93 % 14.97 C
1210 10-08-2014 04:45:00 16.1 C 93 % 14.97 C
1211 10-08-2014 04:50:00 16 C 93 % 14.87 C
1212 10-08-2014 04:55:00 16 C 93 % 14.87 C
1213 10-08-2014 05:00:00 15.9 C 92 % 14.6 C
1214 10-08-2014 05:05:00 15.9 C 92 % 14.6 C
1215 10-08-2014 05:10:00 15.9 C 93 % 14.77 C
1216 10-08-2014 05:15:00 15.9 C 92 % 14.6 C
1217 10-08-2014 05:20:00 16 C 92 % 14.7 C
1218 10-08-2014 05:25:00 16 C 92 % 14.7 C
1219 10-08-2014 05:30:00 15.9 C 92 % 14.6 C
1220 10-08-2014 05:35:00 15.8 C 91 % 14.33 C
1221 10-08-2014 05:40:00 15.8 C 92 % 14.5 C
1222 10-08-2014 05:45:00 15.7 C 91 % 14.24 C
1223 10-08-2014 05:50:00 15.6 C 91 % 14.14 C
1224 10-08-2014 05:55:00 15.5 C 91 % 14.04 C
1225 10-08-2014 06:00:00 15.4 C 91 % 13.94 C
Sensor: Nr:Datum:Temp:Feuchte:Taupunkt:
Aussen-T/F 1226 10-08-2014 06:05:00 15.4 C 91 % 13.94 C
1227 10-08-2014 06:10:00 15.3 C 92 % 14.01 C
1228 10-08-2014 06:15:00 15.3 C 92 % 14.01 C
1229 10-08-2014 06:20:00 15.3 C 92 % 14.01 C
1230 10-08-2014 06:25:00 15.3 C 92 % 14.01 C
1231 10-08-2014 06:30:00 15.3 C 93 % 14.18 C
1232 10-08-2014 06:35:00 15.2 C 93 % 14.08 C
1233 10-08-2014 06:40:00 15.2 C 93 % 14.08 C
1234 10-08-2014 06:45:00 15.2 C 93 % 14.08 C
1235 10-08-2014 06:50:00 15.2 C 93 % 14.08 C
1236 10-08-2014 06:55:00 15.1 C 93 % 13.98 C
1237 10-08-2014 07:00:00 15.2 C 93 % 14.08 C
1238 10-08-2014 07:05:00 15.2 C 94 % 14.24 C
1239 10-08-2014 07:10:00 15.3 C 93 % 14.18 C
1240 10-08-2014 07:15:00 15.3 C 93 % 14.18 C
1241 10-08-2014 07:20:00 15.4 C 93 % 14.27 C
1242 10-08-2014 07:25:00 15.4 C 93 % 14.27 C
1243 10-08-2014 07:30:00 15.4 C 94 % 14.44 C
1244 10-08-2014 07:35:00 15.6 C 94 % 14.64 C
1245 10-08-2014 07:40:00 15.7 C 94 % 14.74 C
1246 10-08-2014 07:45:00 15.9 C 94 % 14.94 C
1247 10-08-2014 07:50:00 16.2 C 93 % 15.07 C
1248 10-08-2014 07:55:00 16.4 C 93 % 15.27 C
1249 10-08-2014 08:00:00 16.7 C 93 % 15.56 C
1250 10-08-2014 08:05:00 16.9 C 93 % 15.76 C
Sensor: Nr:Datum:Temp:Feuchte:Taupunkt:
Aussen-T/F 1251 10-08-2014 08:10:00 17.2 C 92 % 15.89 C
1252 10-08-2014 08:15:00 17.3 C 91 % 15.82 C
1253 10-08-2014 08:20:00 17.4 C 91 % 15.92 C
1254 10-08-2014 08:25:00 17.7 C 89 % 15.86 C
1255 10-08-2014 08:30:00 17.8 C 88 % 15.79 C
1256 10-08-2014 08:35:00 18.1 C 88 % 16.08 C
1257 10-08-2014 08:40:00 18.2 C 88 % 16.18 C
1258 10-08-2014 08:45:00 18.2 C 88 % 16.18 C
1259 10-08-2014 08:50:00 18.1 C 89 % 16.26 C
1260 10-08-2014 08:55:00 18 C 89 % 16.16 C
1261 10-08-2014 09:00:00 18.1 C 90 % 16.43 C
1262 10-08-2014 09:05:00 18.3 C 87 % 16.1 C
1263 10-08-2014 09:10:00 18.7 C 86 % 16.31 C
1264 10-08-2014 09:15:00 19.1 C 86 % 16.7 C
1265 10-08-2014 09:20:00 19.4 C 84 % 16.63 C
1266 10-08-2014 09:25:00 19.7 C 83 % 16.73 C
1267 10-08-2014 09:30:00 20 C 84 % 17.21 C
1268 10-08-2014 09:35:00 20.2 C 82 % 17.03 C
1269 10-08-2014 09:40:00 20.3 C 83 % 17.32 C
1270 10-08-2014 09:45:00 20.4 C 83 % 17.42 C
1271 10-08-2014 09:50:00 20.5 C 82 % 17.32 C
1272 10-08-2014 09:55:00 20.7 C 81 % 17.32 C
1273 10-08-2014 10:00:00 20.8 C 81 % 17.42 C
1274 10-08-2014 10:05:00 20.9 C 80 % 17.32 C
1275 10-08-2014 10:10:00 21.1 C 80 % 17.51 C
Sensor: Nr:Datum:Temp:Feuchte:Taupunkt:
Aussen-T/F 1276 10-08-2014 10:15:00 21.1 C 81 % 17.71 C
1277 10-08-2014 10:20:00 21.1 C 80 % 17.51 C
1278 10-08-2014 10:25:00 21.1 C 80 % 17.51 C
1279 10-08-2014 10:30:00 21.1 C 80 % 17.51 C
1280 10-08-2014 10:35:00 21.2 C 81 % 17.81 C
1281 10-08-2014 10:40:00 21.4 C 80 % 17.81 C
1282 10-08-2014 10:45:00 21.6 C 80 % 18 C
1283 10-08-2014 10:50:00 21.8 C 80 % 18.2 C
1284 10-08-2014 10:55:00 21.9 C 79 % 18.09 C
1285 10-08-2014 11:00:00 21.9 C 79 % 18.09 C
1286 10-08-2014 11:05:00 22.1 C 79 % 18.29 C
1287 10-08-2014 11:10:00 22.2 C 78 % 18.18 C
1288 10-08-2014 11:15:00 22.4 C 78 % 18.37 C
1289 10-08-2014 11:20:00 22.7 C 80 % 19.07 C
1290 10-08-2014 11:25:00 22.8 C 77 % 18.56 C
1291 10-08-2014 11:30:00 23 C 78 % 18.96 C
1292 10-08-2014 11:35:00 23.1 C 77 % 18.85 C
1293 10-08-2014 11:40:00 23.2 C 77 % 18.94 C
1294 10-08-2014 11:45:00 23.3 C 76 % 18.83 C
1295 10-08-2014 11:50:00 23.4 C 77 % 19.14 C
1296 10-08-2014 11:55:00 23.5 C 76 % 19.02 C
1297 10-08-2014 12:00:00 23.7 C 77 % 19.43 C
1298 10-08-2014 12:05:00 23.8 C 74 % 18.89 C
1299 10-08-2014 12:10:00 23.8 C 73 % 18.67 C
1300 10-08-2014 12:15:00 23.6 C 74 % 18.69 C
Sensor: Nr:Datum:Temp:Feuchte:Taupunkt:
Aussen-T/F 1301 10-08-2014 12:20:00 23.7 C 72 % 18.35 C
1302 10-08-2014 12:25:00 23.9 C 74 % 18.98 C
1303 10-08-2014 12:30:00 24.2 C 73 % 19.05 C
1304 10-08-2014 12:35:00 24.6 C 72 % 19.21 C
1305 10-08-2014 12:40:00 24.9 C 70 % 19.05 C
1306 10-08-2014 12:45:00 24.9 C 69 % 18.82 C
1307 10-08-2014 12:50:00 25.1 C 69 % 19.01 C
1308 10-08-2014 12:55:00 25 C 69 % 18.91 C
1309 10-08-2014 13:00:00 24.8 C 69 % 18.72 C
1310 10-08-2014 13:05:00 24.8 C 71 % 19.18 C
1311 10-08-2014 13:10:00 24.7 C 70 % 18.86 C
1312 10-08-2014 13:15:00 24.7 C 71 % 19.09 C
1313 10-08-2014 13:20:00 24.5 C 70 % 18.67 C
1314 10-08-2014 13:25:00 24.2 C 71 % 18.61 C
1315 10-08-2014 13:30:00 24.1 C 74 % 19.17 C
1316 10-08-2014 13:35:00 23.8 C 76 % 19.31 C
1317 10-08-2014 13:40:00 23.4 C 78 % 19.34 C
1318 10-08-2014 13:45:00 22.9 C 82 % 19.66 C
1319 10-08-2014 13:50:00 22.4 C 85 % 19.75 C
1320 10-08-2014 13:55:00 22 C 87 % 19.74 C
1321 10-08-2014 14:00:00 21.7 C 88 % 19.62 C
1322 10-08-2014 14:05:00 21.4 C 90 % 19.69 C
1323 10-08-2014 14:10:00 21.3 C 90 % 19.59 C
1324 10-08-2014 14:15:00 21.2 C 92 % 19.85 C
1325 10-08-2014 14:20:00 21.1 C 92 % 19.75 C
Sensor: Nr:Datum:Temp:Feuchte:Taupunkt:
Aussen-T/F 1326 10-08-2014 14:25:00 21.2 C 92 % 19.85 C
1327 10-08-2014 14:30:00 21.4 C 93 % 20.22 C
1328 10-08-2014 14:35:00 21.6 C 92 % 20.24 C
1329 10-08-2014 14:40:00 21.9 C 93 % 20.72 C
1330 10-08-2014 14:45:00 22.1 C 92 % 20.74 C
1331 10-08-2014 14:50:00 21.9 C 89 % 20 C
1332 10-08-2014 14:55:00 21.9 C 89 % 20 C
1333 10-08-2014 15:00:00 21.8 C 90 % 20.09 C
1334 10-08-2014 15:05:00 21.7 C 90 % 19.99 C
1335 10-08-2014 15:10:00 21.4 C 91 % 19.87 C
1336 10-08-2014 15:15:00 21.2 C 92 % 19.85 C
1337 10-08-2014 15:20:00 21 C 92 % 19.65 C
1338 10-08-2014 15:25:00 20.8 C 92 % 19.45 C
1339 10-08-2014 15:30:00 20.6 C 93 % 19.43 C
1340 10-08-2014 15:35:00 20.4 C 93 % 19.23 C
1341 10-08-2014 15:40:00 20.4 C 94 % 19.4 C
1342 10-08-2014 15:45:00 20.3 C 94 % 19.3 C
1343 10-08-2014 15:50:00 20.3 C 94 % 19.3 C
1344 10-08-2014 15:55:00 20.4 C 95 % 19.57 C
1345 10-08-2014 16:00:00 20.6 C 94 % 19.6 C
1346 10-08-2014 16:05:00 20.7 C 94 % 19.7 C
1347 10-08-2014 16:10:00 20.8 C 94 % 19.8 C
1348 10-08-2014 16:15:00 20.8 C 94 % 19.8 C
1349 10-08-2014 16:20:00 20.8 C 94 % 19.8 C
1350 10-08-2014 16:25:00 20.9 C 95 % 20.07 C
Sensor: Nr:Datum:Temp:Feuchte:Taupunkt:
Aussen-T/F 1351 10-08-2014 16:30:00 21.1 C 95 % 20.27 C
1352 10-08-2014 16:35:00 21.3 C 95 % 20.47 C
1353 10-08-2014 16:40:00 21.2 C 93 % 20.02 C
1354 10-08-2014 16:45:00 21.3 C 93 % 20.12 C
1355 10-08-2014 16:50:00 21.6 C 94 % 20.59 C
1356 10-08-2014 16:55:00 21.6 C 94 % 20.59 C
1357 10-08-2014 17:00:00 21.6 C 94 % 20.59 C
1358 10-08-2014 17:05:00 21.5 C 94 % 20.49 C
1359 10-08-2014 17:10:00 21.6 C 94 % 20.59 C
1360 10-08-2014 17:15:00 21.4 C 94 % 20.39 C
1361 10-08-2014 17:20:00 21.2 C 94 % 20.19 C
1362 10-08-2014 17:25:00 21 C 94 % 20 C
1363 10-08-2014 17:30:00 20.9 C 95 % 20.07 C
1364 10-08-2014 17:35:00 20.8 C 94 % 19.8 C
1365 10-08-2014 17:40:00 20.7 C 95 % 19.87 C
1366 10-08-2014 17:45:00 20.6 C 95 % 19.77 C
1367 10-08-2014 17:50:00 20.4 C 95 % 19.57 C
1368 10-08-2014 17:55:00 20.4 C 95 % 19.57 C
1369 10-08-2014 18:00:00 20.3 C 95 % 19.47 C
1370 10-08-2014 18:05:00 20.3 C 96 % 19.64 C
1371 10-08-2014 18:10:00 20.2 C 96 % 19.54 C
1372 10-08-2014 18:15:00 20.2 C 96 % 19.54 C
1373 10-08-2014 18:20:00 20.2 C 96 % 19.54 C
1374 10-08-2014 18:25:00 20.2 C 96 % 19.54 C
1375 10-08-2014 18:30:00 20.3 C 96 % 19.64 C
Sensor: Nr:Datum:Temp:Feuchte:Taupunkt:
Aussen-T/F 1376 10-08-2014 18:35:00 20.3 C 96 % 19.64 C
1377 10-08-2014 18:40:00 20.3 C 97 % 19.81 C
1378 10-08-2014 18:45:00 20.3 C 96 % 19.64 C
1379 10-08-2014 18:50:00 20.3 C 96 % 19.64 C
1380 10-08-2014 18:55:00 20.2 C 96 % 19.54 C
1381 10-08-2014 19:00:00 20.2 C 96 % 19.54 C
1382 10-08-2014 19:05:00 20.2 C 96 % 19.54 C
1383 10-08-2014 19:10:00 20.1 C 96 % 19.44 C
1384 10-08-2014 19:15:00 20 C 96 % 19.34 C
1385 10-08-2014 19:20:00 20 C 96 % 19.34 C
1386 10-08-2014 19:25:00 19.9 C 96 % 19.24 C
1387 10-08-2014 19:30:00 19.8 C 96 % 19.14 C
1388 10-08-2014 19:35:00 19.8 C 96 % 19.14 C
1389 10-08-2014 19:40:00 19.7 C 96 % 19.04 C
1390 10-08-2014 19:45:00 19.6 C 96 % 18.94 C
1391 10-08-2014 19:50:00 19.5 C 97 % 19.01 C
1392 10-08-2014 19:55:00 19.4 C 96 % 18.75 C
1393 10-08-2014 20:00:00 19.4 C 97 % 18.91 C
1394 10-08-2014 20:05:00 19.4 C 97 % 18.91 C
1395 10-08-2014 20:10:00 19.3 C 97 % 18.81 C
1396 10-08-2014 20:15:00 19.3 C 97 % 18.81 C
1397 10-08-2014 20:20:00 19.2 C 97 % 18.71 C
1398 10-08-2014 20:25:00 19.2 C 97 % 18.71 C
1399 10-08-2014 20:30:00 19.1 C 97 % 18.61 C
1400 10-08-2014 20:35:00 19.1 C 97 % 18.61 C
Sensor: Nr:Datum:Temp:Feuchte:Taupunkt:
Aussen-T/F 1401 10-08-2014 20:40:00 19.1 C 97 % 18.61 C
1402 10-08-2014 20:45:00 19.2 C 97 % 18.71 C
1403 10-08-2014 20:50:00 19.2 C 97 % 18.71 C
1404 10-08-2014 20:55:00 19.2 C 97 % 18.71 C
1405 10-08-2014 21:00:00 19.3 C 96 % 18.65 C
1406 10-08-2014 21:05:00 19.4 C 96 % 18.75 C
1407 10-08-2014 21:10:00 19.3 C 95 % 18.48 C
1408 10-08-2014 21:15:00 19.2 C 94 % 18.21 C
1409 10-08-2014 21:20:00 19.1 C 94 % 18.11 C
1410 10-08-2014 21:25:00 19 C 95 % 18.18 C
1411 10-08-2014 21:30:00 18.8 C 94 % 17.81 C
1412 10-08-2014 21:35:00 18.7 C 94 % 17.71 C
1413 10-08-2014 21:40:00 18.7 C 94 % 17.71 C
1414 10-08-2014 21:45:00 18.7 C 93 % 17.54 C
1415 10-08-2014 21:50:00 18.7 C 93 % 17.54 C
1416 10-08-2014 21:55:00 18.8 C 93 % 17.64 C
1417 10-08-2014 22:00:00 18.7 C 93 % 17.54 C
1418 10-08-2014 22:05:00 18.6 C 93 % 17.45 C
1419 10-08-2014 22:10:00 18.6 C 94 % 17.62 C
1420 10-08-2014 22:15:00 18.5 C 94 % 17.52 C
1421 10-08-2014 22:20:00 18.4 C 94 % 17.42 C
1422 10-08-2014 22:25:00 18.3 C 94 % 17.32 C
1423 10-08-2014 22:30:00 18.3 C 95 % 17.48 C
1424 10-08-2014 22:35:00 18.2 C 95 % 17.39 C
1425 10-08-2014 22:40:00 18.2 C 95 % 17.39 C
Sensor: Nr:Datum:Temp:Feuchte:Taupunkt:
Aussen-T/F 1426 10-08-2014 22:45:00 18.1 C 95 % 17.29 C
1427 10-08-2014 22:50:00 18.1 C 96 % 17.45 C
1428 10-08-2014 22:55:00 18.1 C 96 % 17.45 C
1429 10-08-2014 23:00:00 17.9 C 96 % 17.25 C
1430 10-08-2014 23:05:00 17.9 C 96 % 17.25 C
1431 10-08-2014 23:10:00 17.9 C 96 % 17.25 C
1432 10-08-2014 23:15:00 17.8 C 96 % 17.15 C
1433 10-08-2014 23:20:00 17.8 C 96 % 17.15 C
1434 10-08-2014 23:25:00 17.8 C 96 % 17.15 C
1435 10-08-2014 23:30:00 17.8 C 96 % 17.15 C
1436 10-08-2014 23:35:00 17.7 C 96 % 17.05 C
1437 10-08-2014 23:40:00 17.7 C 96 % 17.05 C
1438 10-08-2014 23:45:00 17.7 C 96 % 17.05 C
1439 10-08-2014 23:50:00 17.7 C 96 % 17.05 C
1440 10-08-2014 23:55:00 17.7 C 96 % 17.05 C
1441 11-08-2014 00:00:00 17.7 C 95 % 16.89 C
1442 11-08-2014 00:05:00 17.7 C 95 % 16.89 C
1443 11-08-2014 00:10:00 17.7 C 95 % 16.89 C
1444 11-08-2014 00:15:00 17.6 C 95 % 16.79 C
1445 11-08-2014 00:20:00 17.5 C 95 % 16.69 C
1446 11-08-2014 00:25:00 17.5 C 94 % 16.52 C
1447 11-08-2014 00:30:00 17.6 C 94 % 16.62 C
1448 11-08-2014 00:35:00 17.6 C 93 % 16.45 C
1449 11-08-2014 00:40:00 17.6 C 93 % 16.45 C
1450 11-08-2014 00:45:00 17.3 C 93 % 16.16 C
Sensor: Nr:Datum:Temp:Feuchte:Taupunkt:
Aussen-T/F 1451 11-08-2014 00:50:00 17.2 C 94 % 16.23 C
1452 11-08-2014 00:55:00 17.1 C 95 % 16.29 C
1453 11-08-2014 01:00:00 17 C 94 % 16.03 C
1454 11-08-2014 01:05:00 16.8 C 93 % 15.66 C
1455 11-08-2014 01:10:00 16.8 C 92 % 15.49 C
1456 11-08-2014 01:15:00 16.6 C 93 % 15.46 C
1457 11-08-2014 01:20:00 16.4 C 94 % 15.43 C
1458 11-08-2014 01:25:00 16.2 C 94 % 15.23 C
1459 11-08-2014 01:30:00 16 C 95 % 15.2 C
1460 11-08-2014 01:35:00 15.9 C 95 % 15.1 C
1461 11-08-2014 01:40:00 15.9 C 95 % 15.1 C
1462 11-08-2014 01:45:00 16 C 95 % 15.2 C
1463 11-08-2014 01:50:00 16.1 C 93 % 14.97 C
1464 11-08-2014 01:55:00 16.1 C 92 % 14.8 C
1465 11-08-2014 02:00:00 16 C 91 % 14.53 C
1466 11-08-2014 02:05:00 15.9 C 90 % 14.26 C
1467 11-08-2014 02:10:00 15.8 C 90 % 14.16 C
1468 11-08-2014 02:15:00 15.7 C 91 % 14.24 C
1469 11-08-2014 02:20:00 15.6 C 91 % 14.14 C
1470 11-08-2014 02:25:00 15.4 C 91 % 13.94 C
1471 11-08-2014 02:30:00 15.2 C 91 % 13.74 C
1472 11-08-2014 02:35:00 15.2 C 90 % 13.57 C
1473 11-08-2014 02:40:00 15.2 C 91 % 13.74 C
1474 11-08-2014 02:45:00 15.2 C 91 % 13.74 C
1475 11-08-2014 02:50:00 14.9 C 92 % 13.61 C
Sensor: Nr:Datum:Temp:Feuchte:Taupunkt:
Aussen-T/F 1476 11-08-2014 02:55:00 14.8 C 93 % 13.68 C
1477 11-08-2014 03:00:00 14.7 C 93 % 13.58 C
1478 11-08-2014 03:05:00 14.5 C 94 % 13.55 C
1479 11-08-2014 03:10:00 14.4 C 94 % 13.45 C
1480 11-08-2014 03:15:00 14.3 C 94 % 13.35 C
1481 11-08-2014 03:20:00 14.1 C 94 % 13.15 C
1482 11-08-2014 03:25:00 14.1 C 95 % 13.31 C
1483 11-08-2014 03:30:00 13.9 C 95 % 13.11 C
1484 11-08-2014 03:35:00 13.9 C 95 % 13.11 C
1485 11-08-2014 03:40:00 13.8 C 95 % 13.01 C
1486 11-08-2014 03:45:00 13.7 C 95 % 12.91 C
1487 11-08-2014 03:50:00 13.7 C 95 % 12.91 C
1488 11-08-2014 03:55:00 13.6 C 96 % 12.97 C
1489 11-08-2014 04:00:00 13.6 C 95 % 12.81 C
1490 11-08-2014 04:05:00 13.5 C 95 % 12.72 C
1491 11-08-2014 04:10:00 13.5 C 96 % 12.87 C
1492 11-08-2014 04:15:00 13.5 C 95 % 12.72 C
1493 11-08-2014 04:20:00 13.4 C 95 % 12.62 C
1494 11-08-2014 04:25:00 13.3 C 95 % 12.52 C
1495 11-08-2014 04:30:00 13.4 C 95 % 12.62 C
1496 11-08-2014 04:35:00 13.3 C 95 % 12.52 C
1497 11-08-2014 04:40:00 13.3 C 95 % 12.52 C
1498 11-08-2014 04:45:00 13.2 C 95 % 12.42 C
1499 11-08-2014 04:50:00 13.2 C 95 % 12.42 C
1500 11-08-2014 04:55:00 13.2 C 95 % 12.42 C
Sensor: Nr:Datum:Temp:Feuchte:Taupunkt:
Aussen-T/F 1501 11-08-2014 05:00:00 13.2 C 95 % 12.42 C
1502 11-08-2014 05:05:00 13.1 C 95 % 12.32 C
1503 11-08-2014 05:10:00 13.1 C 95 % 12.32 C
1504 11-08-2014 05:15:00 13.1 C 95 % 12.32 C
1505 11-08-2014 05:20:00 13.1 C 95 % 12.32 C
1506 11-08-2014 05:25:00 13.2 C 94 % 12.26 C
1507 11-08-2014 05:30:00 13.2 C 94 % 12.26 C
1508 11-08-2014 05:35:00 13.2 C 94 % 12.26 C
1509 11-08-2014 05:40:00 13.2 C 94 % 12.26 C
1510 11-08-2014 05:45:00 13.1 C 94 % 12.16 C
1511 11-08-2014 05:50:00 13.1 C 94 % 12.16 C
1512 11-08-2014 05:55:00 13.1 C 94 % 12.16 C
1513 11-08-2014 06:00:00 13.1 C 94 % 12.16 C
1514 11-08-2014 06:05:00 13 C 94 % 12.06 C
1515 11-08-2014 06:10:00 12.9 C 94 % 11.96 C
1516 11-08-2014 06:15:00 12.9 C 94 % 11.96 C
1517 11-08-2014 06:20:00 12.9 C 95 % 12.12 C
1518 11-08-2014 06:25:00 12.8 C 95 % 12.02 C
1519 11-08-2014 06:30:00 12.8 C 94 % 11.86 C
1520 11-08-2014 06:35:00 12.8 C 95 % 12.02 C
1521 11-08-2014 06:40:00 12.8 C 95 % 12.02 C
1522 11-08-2014 06:45:00 12.8 C 95 % 12.02 C
1523 11-08-2014 06:50:00 12.8 C 95 % 12.02 C
1524 11-08-2014 06:55:00 12.8 C 95 % 12.02 C
1525 11-08-2014 07:00:00 12.8 C 95 % 12.02 C
Sensor: Nr:Datum:Temp:Feuchte:Taupunkt:
Aussen-T/F 1526 11-08-2014 07:05:00 12.9 C 95 % 12.12 C
1527 11-08-2014 07:10:00 12.9 C 95 % 12.12 C
1528 11-08-2014 07:15:00 12.9 C 95 % 12.12 C
1529 11-08-2014 07:20:00 13 C 95 % 12.22 C
1530 11-08-2014 07:25:00 13.1 C 95 % 12.32 C
1531 11-08-2014 07:30:00 13.2 C 95 % 12.42 C
1532 11-08-2014 07:35:00 13.2 C 95 % 12.42 C
1533 11-08-2014 07:40:00 13.2 C 95 % 12.42 C
1534 11-08-2014 07:45:00 13.3 C 95 % 12.52 C
1535 11-08-2014 07:50:00 13.4 C 94 % 12.45 C
1536 11-08-2014 07:55:00 13.4 C 94 % 12.45 C
1537 11-08-2014 08:00:00 13.6 C 94 % 12.65 C
1538 11-08-2014 08:05:00 13.6 C 94 % 12.65 C
1539 11-08-2014 08:10:00 13.7 C 94 % 12.75 C
1540 11-08-2014 08:15:00 13.7 C 94 % 12.75 C
1541 11-08-2014 08:20:00 13.7 C 94 % 12.75 C
1542 11-08-2014 08:25:00 13.7 C 94 % 12.75 C
1543 11-08-2014 08:30:00 13.8 C 94 % 12.85 C
1544 11-08-2014 08:35:00 13.8 C 94 % 12.85 C
1545 11-08-2014 08:40:00 13.8 C 93 % 12.69 C
1546 11-08-2014 08:45:00 14 C 92 % 12.72 C
1547 11-08-2014 08:50:00 14.3 C 90 % 12.68 C
1548 11-08-2014 08:55:00 14.7 C 88 % 12.73 C
1549 11-08-2014 09:00:00 14.9 C 87 % 12.76 C
1550 11-08-2014 09:05:00 15.2 C 86 % 12.88 C
Sensor: Nr:Datum:Temp:Feuchte:Taupunkt:
Aussen-T/F 1551 11-08-2014 09:10:00 15.2 C 85 % 12.7 C
1552 11-08-2014 09:15:00 15.3 C 85 % 12.79 C
1553 11-08-2014 09:20:00 15.3 C 85 % 12.79 C
1554 11-08-2014 09:25:00 15.4 C 84 % 12.71 C
1555 11-08-2014 09:30:00 15.4 C 84 % 12.71 C
1556 11-08-2014 09:35:00 15.5 C 84 % 12.81 C
1557 11-08-2014 09:40:00 15.6 C 84 % 12.91 C
1558 11-08-2014 09:45:00 15.7 C 84 % 13.01 C
1559 11-08-2014 09:50:00 15.8 C 83 % 12.92 C
1560 11-08-2014 09:55:00 15.9 C 84 % 13.2 C
1561 11-08-2014 10:00:00 16 C 83 % 13.12 C
1562 11-08-2014 10:05:00 16.1 C 82 % 13.03 C
1563 11-08-2014 10:10:00 16.2 C 83 % 13.31 C
1564 11-08-2014 10:15:00 16.3 C 82 % 13.22 C
1565 11-08-2014 10:20:00 16.3 C 80 % 12.85 C
1566 11-08-2014 10:25:00 16.4 C 81 % 13.13 C
1567 11-08-2014 10:30:00 16.5 C 80 % 13.04 C
1568 11-08-2014 10:35:00 16.6 C 81 % 13.33 C
1569 11-08-2014 10:40:00 16.8 C 79 % 13.14 C
1570 11-08-2014 10:45:00 16.9 C 77 % 12.84 C
1571 11-08-2014 10:50:00 16.9 C 77 % 12.84 C
1572 11-08-2014 10:55:00 17.1 C 76 % 12.84 C
1573 11-08-2014 11:00:00 17.3 C 78 % 13.43 C
1574 11-08-2014 11:05:00 17.4 C 79 % 13.72 C
1575 11-08-2014 11:10:00 17.7 C 76 % 13.42 C
Sensor: Nr:Datum:Temp:Feuchte:Taupunkt:
Aussen-T/F 1576 11-08-2014 11:15:00 17.9 C 77 % 13.81 C
1577 11-08-2014 11:20:00 18.2 C 73 % 13.28 C
1578 11-08-2014 11:25:00 18.4 C 71 % 13.05 C
1579 11-08-2014 11:30:00 18.4 C 70 % 12.83 C
1580 11-08-2014 11:35:00 18.6 C 70 % 13.02 C
1581 11-08-2014 11:40:00 18.7 C 70 % 13.12 C
1582 11-08-2014 11:45:00 18.8 C 70 % 13.22 C
1583 11-08-2014 11:50:00 18.8 C 69 % 13 C
1584 11-08-2014 11:55:00 18.9 C 70 % 13.31 C
1585 11-08-2014 12:00:00 18.9 C 68 % 12.87 C
1586 11-08-2014 12:05:00 19 C 68 % 12.96 C
1587 11-08-2014 12:10:00 19.1 C 69 % 13.28 C
1588 11-08-2014 12:15:00 19.4 C 67 % 13.12 C
1589 11-08-2014 12:20:00 19.5 C 68 % 13.44 C
1590 11-08-2014 12:25:00 19.5 C 68 % 13.44 C
1591 11-08-2014 12:30:00 19.7 C 65 % 12.94 C
1592 11-08-2014 12:35:00 20 C 65 % 13.22 C
1593 11-08-2014 12:40:00 20.1 C 65 % 13.32 C
1594 11-08-2014 12:45:00 19.9 C 66 % 13.36 C
1595 11-08-2014 12:50:00 19.8 C 66 % 13.27 C
1596 11-08-2014 12:55:00 19.7 C 64 % 12.7 C
1597 11-08-2014 13:00:00 19.8 C 66 % 13.27 C
1598 11-08-2014 13:05:00 20.1 C 62 % 12.6 C
1599 11-08-2014 13:10:00 20.2 C 61 % 12.44 C
1600 11-08-2014 13:15:00 20.2 C 63 % 12.94 C
Sensor: Nr:Datum:Temp:Feuchte:Taupunkt:
Aussen-T/F 1601 11-08-2014 13:20:00 20.3 C 64 % 13.27 C
1602 11-08-2014 13:25:00 20.1 C 61 % 12.35 C
1603 11-08-2014 13:30:00 20.2 C 65 % 13.41 C
1604 11-08-2014 13:35:00 20.4 C 64 % 13.37 C
1605 11-08-2014 13:40:00 20.5 C 61 % 12.73 C
1606 11-08-2014 13:45:00 20.6 C 63 % 13.31 C
1607 11-08-2014 13:50:00 21 C 64 % 13.93 C
1608 11-08-2014 13:55:00 21.1 C 63 % 13.79 C
1609 11-08-2014 14:00:00 21.1 C 67 % 14.74 C
1610 11-08-2014 14:05:00 21.4 C 61 % 13.57 C
1611 11-08-2014 14:10:00 21.4 C 59 % 13.06 C
1612 11-08-2014 14:15:00 21.4 C 62 % 13.82 C
1613 11-08-2014 14:20:00 21.7 C 58 % 13.08 C
1614 11-08-2014 14:25:00 21.9 C 58 % 13.27 C
1615 11-08-2014 14:30:00 21.9 C 58 % 13.27 C
1616 11-08-2014 14:35:00 21.5 C 57 % 12.63 C
1617 11-08-2014 14:40:00 21 C 59 % 12.69 C
1618 11-08-2014 14:45:00 20.2 C 66 % 13.65 C
1619 11-08-2014 14:50:00 18.9 C 70 % 13.31 C
1620 11-08-2014 14:55:00 17.8 C 77 % 13.72 C
1621 11-08-2014 15:00:00 16.9 C 81 % 13.62 C
1622 11-08-2014 15:05:00 16.7 C 87 % 14.53 C
1623 11-08-2014 15:10:00 17.1 C 89 % 15.27 C
1624 11-08-2014 15:15:00 17.5 C 87 % 15.31 C
1625 11-08-2014 15:20:00 18.1 C 84 % 15.35 C
Sensor: Nr:Datum:Temp:Feuchte:Taupunkt:
Aussen-T/F 1626 11-08-2014 15:25:00 18.6 C 86 % 16.21 C
1627 11-08-2014 15:30:00 19 C 87 % 16.79 C
1628 11-08-2014 15:35:00 19.3 C 82 % 16.15 C
1629 11-08-2014 15:40:00 19.9 C 75 % 15.34 C
1630 11-08-2014 15:45:00 20.3 C 85 % 17.7 C
1631 11-08-2014 15:50:00 20.3 C 78 % 16.34 C
1632 11-08-2014 15:55:00 20.3 C 86 % 17.88 C
1633 11-08-2014 16:00:00 20.4 C 80 % 16.83 C
1634 11-08-2014 16:05:00 20.8 C 81 % 17.42 C
1635 11-08-2014 16:10:00 21.1 C 69 % 15.19 C
1636 11-08-2014 16:15:00 21.1 C 74 % 16.29 C
1637 11-08-2014 16:20:00 20.7 C 80 % 17.13 C
1638 11-08-2014 16:25:00 19.9 C 81 % 16.54 C
1639 11-08-2014 16:30:00 19.4 C 80 % 15.86 C
1640 11-08-2014 16:35:00 19.6 C 81 % 16.25 C
1641 11-08-2014 16:40:00 19.9 C 81 % 16.54 C
1642 11-08-2014 16:45:00 20.5 C 72 % 15.28 C
1643 11-08-2014 16:50:00 21.2 C 61 % 13.38 C
1644 11-08-2014 16:55:00 21.6 C 63 % 14.26 C
1645 11-08-2014 17:00:00 21.9 C 64 % 14.78 C
1646 11-08-2014 17:05:00 21.9 C 63 % 14.54 C
1647 11-08-2014 17:10:00 22.1 C 63 % 14.73 C
1648 11-08-2014 17:15:00 22.3 C 57 % 13.37 C
1649 11-08-2014 17:20:00 22.3 C 55 % 12.83 C
1650 11-08-2014 17:25:00 22.3 C 56 % 13.1 C
Sensor: Nr:Datum:Temp:Feuchte:Taupunkt:
Aussen-T/F 1651 11-08-2014 17:30:00 22.2 C 62 % 14.58 C
1652 11-08-2014 17:35:00 21.7 C 55 % 12.27 C
1653 11-08-2014 17:40:00 21.4 C 56 % 12.27 C
1654 11-08-2014 17:45:00 21.7 C 61 % 13.85 C
1655 11-08-2014 17:50:00 22 C 60 % 13.88 C
1656 11-08-2014 17:55:00 21.9 C 58 % 13.27 C
1657 11-08-2014 18:00:00 21.5 C 59 % 13.15 C
1658 11-08-2014 18:05:00 21.4 C 61 % 13.57 C
1659 11-08-2014 18:10:00 21.1 C 62 % 13.54 C
1660 11-08-2014 18:15:00 20.9 C 60 % 12.85 C
1661 11-08-2014 18:20:00 20.8 C 63 % 13.5 C
1662 11-08-2014 18:25:00 21.1 C 60 % 13.04 C
1663 11-08-2014 18:30:00 21.5 C 62 % 13.92 C
1664 11-08-2014 18:35:00 21.7 C 60 % 13.6 C
1665 11-08-2014 18:40:00 21.7 C 65 % 14.84 C
1666 11-08-2014 18:45:00 21.3 C 67 % 14.93 C
1667 11-08-2014 18:50:00 20.9 C 69 % 15 C
1668 11-08-2014 18:55:00 21 C 60 % 12.94 C
1669 11-08-2014 19:00:00 21.3 C 69 % 15.38 C
1670 11-08-2014 19:05:00 20.8 C 60 % 12.76 C
1671 11-08-2014 19:10:00 20.6 C 68 % 14.49 C
1672 11-08-2014 19:15:00 20.7 C 68 % 14.58 C
1673 11-08-2014 19:20:00 20.8 C 65 % 13.98 C
1674 11-08-2014 19:25:00 20.8 C 70 % 15.13 C
1675 11-08-2014 19:30:00 20.7 C 65 % 13.89 C
Sensor: Nr:Datum:Temp:Feuchte:Taupunkt:
Aussen-T/F 1676 11-08-2014 19:35:00 20.7 C 64 % 13.65 C
1677 11-08-2014 19:40:00 20.5 C 65 % 13.7 C
1678 11-08-2014 19:45:00 20.3 C 65 % 13.51 C
1679 11-08-2014 19:50:00 20.2 C 64 % 13.18 C
1680 11-08-2014 19:55:00 19.9 C 70 % 14.27 C
1681 11-08-2014 20:00:00 19.5 C 68 % 13.44 C
1682 11-08-2014 20:05:00 19.5 C 63 % 12.27 C
1683 11-08-2014 20:10:00 19.7 C 64 % 12.7 C
1684 11-08-2014 20:15:00 19.6 C 65 % 12.84 C
1685 11-08-2014 20:20:00 19.4 C 68 % 13.34 C
1686 11-08-2014 20:25:00 19.2 C 68 % 13.15 C
1687 11-08-2014 20:30:00 18.9 C 72 % 13.74 C
1688 11-08-2014 20:35:00 18.4 C 74 % 13.68 C
1689 11-08-2014 20:40:00 18.1 C 75 % 13.6 C
1690 11-08-2014 20:45:00 17.9 C 76 % 13.61 C
1691 11-08-2014 20:50:00 17.7 C 76 % 13.42 C
1692 11-08-2014 20:55:00 17.2 C 77 % 13.14 C
1693 11-08-2014 21:00:00 16.9 C 79 % 13.24 C
1694 11-08-2014 21:05:00 16.6 C 80 % 13.14 C
1695 11-08-2014 21:10:00 16.4 C 81 % 13.13 C
1696 11-08-2014 21:15:00 16.2 C 81 % 12.94 C
1697 11-08-2014 21:20:00 16.1 C 82 % 13.03 C
1698 11-08-2014 21:25:00 16.1 C 80 % 12.65 C
1699 11-08-2014 21:30:00 16.2 C 81 % 12.94 C
1700 11-08-2014 21:35:00 16.1 C 79 % 12.46 C
Sensor: Nr:Datum:Temp:Feuchte:Taupunkt:
Aussen-T/F 1701 11-08-2014 21:40:00 16.3 C 81 % 13.04 C
1702 11-08-2014 21:45:00 16.3 C 80 % 12.85 C
1703 11-08-2014 21:50:00 16.5 C 80 % 13.04 C
1704 11-08-2014 21:55:00 16.4 C 81 % 13.13 C
1705 11-08-2014 22:00:00 16.2 C 82 % 13.13 C
1706 11-08-2014 22:05:00 15.9 C 82 % 12.83 C
1707 11-08-2014 22:10:00 15.7 C 83 % 12.82 C
1708 11-08-2014 22:15:00 15.6 C 82 % 12.54 C
1709 11-08-2014 22:20:00 15.4 C 84 % 12.71 C
1710 11-08-2014 22:25:00 15.3 C 85 % 12.79 C
1711 11-08-2014 22:30:00 15.1 C 85 % 12.6 C
1712 11-08-2014 22:35:00 14.9 C 84 % 12.22 C
1713 11-08-2014 22:40:00 14.8 C 86 % 12.48 C
1714 11-08-2014 22:45:00 14.8 C 86 % 12.48 C
1715 11-08-2014 22:50:00 14.7 C 85 % 12.21 C
1716 11-08-2014 22:55:00 14.6 C 86 % 12.29 C
1717 11-08-2014 23:00:00 14.5 C 86 % 12.19 C
1718 11-08-2014 23:05:00 14.4 C 86 % 12.09 C
1719 11-08-2014 23:10:00 14.3 C 86 % 11.99 C
1720 11-08-2014 23:15:00 14.3 C 87 % 12.17 C
1721 11-08-2014 23:20:00 14.2 C 87 % 12.07 C
1722 11-08-2014 23:25:00 14.2 C 87 % 12.07 C
1723 11-08-2014 23:30:00 14.2 C 87 % 12.07 C
1724 11-08-2014 23:35:00 14.2 C 87 % 12.07 C
1725 11-08-2014 23:40:00 14.1 C 87 % 11.97 C
Sensor: Nr:Datum:Temp:Feuchte:Taupunkt:
Aussen-T/F 1726 11-08-2014 23:45:00 14 C 88 % 12.05 C
1727 11-08-2014 23:50:00 13.9 C 88 % 11.95 C
1728 11-08-2014 23:55:00 13.9 C 88 % 11.95 C
1729 12-08-2014 00:00:00 14 C 88 % 12.05 C
1730 12-08-2014 00:05:00 14 C 88 % 12.05 C
1731 12-08-2014 00:10:00 14 C 88 % 12.05 C
1732 12-08-2014 00:15:00 13.9 C 88 % 11.95 C
1733 12-08-2014 00:20:00 14 C 87 % 11.87 C
1734 12-08-2014 00:25:00 14.1 C 88 % 12.14 C
1735 12-08-2014 00:30:00 14.2 C 89 % 12.41 C
1736 12-08-2014 00:35:00 14.3 C 89 % 12.51 C
1737 12-08-2014 00:40:00 14.3 C 88 % 12.34 C
1738 12-08-2014 00:45:00 14.6 C 84 % 11.93 C
1739 12-08-2014 00:50:00 14.9 C 85 % 12.4 C
1740 12-08-2014 00:55:00 15.1 C 83 % 12.24 C
1741 12-08-2014 01:00:00 15.3 C 81 % 12.06 C
1742 12-08-2014 01:05:00 15.5 C 79 % 11.88 C
1743 12-08-2014 01:10:00 15.8 C 77 % 11.78 C
1744 12-08-2014 01:15:00 16.1 C 75 % 11.67 C
1745 12-08-2014 01:20:00 16.4 C 74 % 11.76 C
1746 12-08-2014 01:25:00 16.5 C 73 % 11.65 C
1747 12-08-2014 01:30:00 16.5 C 74 % 11.85 C
1748 12-08-2014 01:35:00 16.4 C 75 % 11.96 C
1749 12-08-2014 01:40:00 16.3 C 74 % 11.66 C
1750 12-08-2014 01:45:00 16.4 C 74 % 11.76 C
Sensor: Nr:Datum:Temp:Feuchte:Taupunkt:
Aussen-T/F 1751 12-08-2014 01:50:00 16.4 C 74 % 11.76 C
1752 12-08-2014 01:55:00 16.3 C 74 % 11.66 C
1753 12-08-2014 02:00:00 16.2 C 77 % 12.17 C
1754 12-08-2014 02:05:00 16.1 C 79 % 12.46 C
1755 12-08-2014 02:10:00 15.7 C 81 % 12.45 C
1756 12-08-2014 02:15:00 15.5 C 82 % 12.44 C
1757 12-08-2014 02:20:00 15.4 C 81 % 12.16 C
1758 12-08-2014 02:25:00 15.4 C 82 % 12.35 C
1759 12-08-2014 02:30:00 15.4 C 81 % 12.16 C
1760 12-08-2014 02:35:00 15.3 C 82 % 12.25 C
1761 12-08-2014 02:40:00 15.3 C 82 % 12.25 C
1762 12-08-2014 02:45:00 15.3 C 82 % 12.25 C
1763 12-08-2014 02:50:00 15.3 C 82 % 12.25 C
1764 12-08-2014 02:55:00 15.3 C 82 % 12.25 C
1765 12-08-2014 03:00:00 15.2 C 84 % 12.52 C
1766 12-08-2014 03:05:00 15.1 C 85 % 12.6 C
1767 12-08-2014 03:10:00 14.8 C 85 % 12.3 C
1768 12-08-2014 03:15:00 14.7 C 86 % 12.38 C
1769 12-08-2014 03:20:00 14.6 C 87 % 12.46 C
1770 12-08-2014 03:25:00 14.4 C 88 % 12.44 C
1771 12-08-2014 03:30:00 14.3 C 88 % 12.34 C
1772 12-08-2014 03:35:00 14.3 C 89 % 12.51 C
1773 12-08-2014 03:40:00 14.2 C 90 % 12.58 C
1774 12-08-2014 03:45:00 14.1 C 91 % 12.65 C
1775 12-08-2014 03:50:00 14 C 91 % 12.56 C
Sensor: Nr:Datum:Temp:Feuchte:Taupunkt:
Aussen-T/F 1776 12-08-2014 03:55:00 13.9 C 91 % 12.46 C
1777 12-08-2014 04:00:00 13.9 C 91 % 12.46 C
1778 12-08-2014 04:05:00 13.8 C 92 % 12.52 C
1779 12-08-2014 04:10:00 13.8 C 92 % 12.52 C
1780 12-08-2014 04:15:00 13.8 C 92 % 12.52 C
1781 12-08-2014 04:20:00 13.8 C 92 % 12.52 C
1782 12-08-2014 04:25:00 13.8 C 92 % 12.52 C
1783 12-08-2014 04:30:00 13.9 C 91 % 12.46 C
1784 12-08-2014 04:35:00 14 C 91 % 12.56 C
1785 12-08-2014 04:40:00 14.1 C 90 % 12.49 C
1786 12-08-2014 04:45:00 14.2 C 89 % 12.41 C
1787 12-08-2014 04:50:00 14.3 C 89 % 12.51 C
1788 12-08-2014 04:55:00 14.3 C 88 % 12.34 C
1789 12-08-2014 05:00:00 14.4 C 88 % 12.44 C
1790 12-08-2014 05:05:00 14.4 C 88 % 12.44 C
1791 12-08-2014 05:10:00 14.3 C 88 % 12.34 C
1792 12-08-2014 05:15:00 14.3 C 88 % 12.34 C
1793 12-08-2014 05:20:00 14.3 C 88 % 12.34 C
1794 12-08-2014 05:25:00 14.2 C 88 % 12.24 C
1795 12-08-2014 05:30:00 14.2 C 88 % 12.24 C
1796 12-08-2014 05:35:00 14.2 C 88 % 12.24 C
1797 12-08-2014 05:40:00 14.1 C 88 % 12.14 C
1798 12-08-2014 05:45:00 14.1 C 88 % 12.14 C
1799 12-08-2014 05:50:00 14.1 C 88 % 12.14 C
1800 12-08-2014 05:55:00 14.1 C 88 % 12.14 C
Sensor: Nr:Datum:Temp:Feuchte:Taupunkt:
Aussen-T/F 1801 12-08-2014 06:00:00 14.1 C 88 % 12.14 C
1802 12-08-2014 06:05:00 14.2 C 88 % 12.24 C
1803 12-08-2014 06:10:00 14.2 C 87 % 12.07 C
1804 12-08-2014 06:15:00 14.2 C 88 % 12.24 C
1805 12-08-2014 06:20:00 14.1 C 87 % 11.97 C
1806 12-08-2014 06:25:00 14.1 C 88 % 12.14 C
1807 12-08-2014 06:30:00 14.1 C 87 % 11.97 C
1808 12-08-2014 06:35:00 14.2 C 87 % 12.07 C
1809 12-08-2014 06:40:00 14.1 C 88 % 12.14 C
1810 12-08-2014 06:45:00 14.1 C 88 % 12.14 C
1811 12-08-2014 06:50:00 13.9 C 88 % 11.95 C
1812 12-08-2014 06:55:00 13.9 C 88 % 11.95 C
1813 12-08-2014 07:00:00 13.8 C 89 % 12.02 C
1814 12-08-2014 07:05:00 13.8 C 90 % 12.19 C
1815 12-08-2014 07:10:00 13.7 C 89 % 11.92 C
1816 12-08-2014 07:15:00 13.7 C 90 % 12.09 C
1817 12-08-2014 07:20:00 13.7 C 90 % 12.09 C
1818 12-08-2014 07:25:00 13.7 C 90 % 12.09 C
1819 12-08-2014 07:30:00 13.8 C 91 % 12.36 C
1820 12-08-2014 07:35:00 13.8 C 91 % 12.36 C
1821 12-08-2014 07:40:00 13.9 C 91 % 12.46 C
1822 12-08-2014 07:45:00 13.9 C 91 % 12.46 C
1823 12-08-2014 07:50:00 13.9 C 90 % 12.29 C
1824 12-08-2014 07:55:00 14 C 91 % 12.56 C
1825 12-08-2014 08:00:00 14.1 C 91 % 12.65 C
Sensor: Nr:Datum:Temp:Feuchte:Taupunkt:
Aussen-T/F 1826 12-08-2014 08:05:00 14.2 C 91 % 12.75 C
1827 12-08-2014 08:10:00 14.2 C 91 % 12.75 C
1828 12-08-2014 08:15:00 14.3 C 91 % 12.85 C
1829 12-08-2014 08:20:00 14.4 C 91 % 12.95 C
1830 12-08-2014 08:25:00 14.4 C 91 % 12.95 C
1831 12-08-2014 08:30:00 14.3 C 91 % 12.85 C
1832 12-08-2014 08:35:00 14.3 C 91 % 12.85 C
1833 12-08-2014 08:40:00 14.3 C 90 % 12.68 C
1834 12-08-2014 08:45:00 14.4 C 89 % 12.61 C
1835 12-08-2014 08:50:00 14.7 C 87 % 12.56 C
1836 12-08-2014 08:55:00 14.9 C 86 % 12.58 C
1837 12-08-2014 09:00:00 15.1 C 86 % 12.78 C
1838 12-08-2014 09:05:00 15.3 C 85 % 12.79 C
1839 12-08-2014 09:10:00 15.6 C 83 % 12.72 C
1840 12-08-2014 09:15:00 15.7 C 83 % 12.82 C
1841 12-08-2014 09:20:00 15.7 C 82 % 12.64 C
1842 12-08-2014 09:25:00 15.8 C 81 % 12.55 C
1843 12-08-2014 09:30:00 15.9 C 81 % 12.65 C
1844 12-08-2014 09:35:00 16.1 C 80 % 12.65 C
1845 12-08-2014 09:40:00 16.2 C 79 % 12.56 C
1846 12-08-2014 09:45:00 16.3 C 79 % 12.65 C
1847 12-08-2014 09:50:00 16.4 C 79 % 12.75 C
1848 12-08-2014 09:55:00 16.5 C 78 % 12.65 C
1849 12-08-2014 10:00:00 16.6 C 76 % 12.36 C
1850 12-08-2014 10:05:00 16.7 C 75 % 12.25 C
Sensor: Nr:Datum:Temp:Feuchte:Taupunkt:
Aussen-T/F 1851 12-08-2014 10:10:00 16.7 C 75 % 12.25 C
1852 12-08-2014 10:15:00 16.8 C 75 % 12.35 C
1853 12-08-2014 10:20:00 16.9 C 73 % 12.03 C
1854 12-08-2014 10:25:00 17.1 C 73 % 12.23 C
1855 12-08-2014 10:30:00 17.2 C 72 % 12.11 C
1856 12-08-2014 10:35:00 17.2 C 72 % 12.11 C
1857 12-08-2014 10:40:00 17.3 C 73 % 12.42 C
1858 12-08-2014 10:45:00 17.5 C 71 % 12.19 C
1859 12-08-2014 10:50:00 17.6 C 71 % 12.28 C
1860 12-08-2014 10:55:00 17.7 C 70 % 12.16 C
1861 12-08-2014 11:00:00 17.7 C 68 % 11.72 C
1862 12-08-2014 11:05:00 17.9 C 69 % 12.14 C
1863 12-08-2014 11:10:00 18.2 C 67 % 11.98 C
1864 12-08-2014 11:15:00 18.3 C 68 % 12.3 C
1865 12-08-2014 11:20:00 18.6 C 66 % 12.13 C
1866 12-08-2014 11:25:00 18.6 C 64 % 11.66 C
1867 12-08-2014 11:30:00 18.4 C 65 % 11.71 C
1868 12-08-2014 11:35:00 18.4 C 66 % 11.94 C
1869 12-08-2014 11:40:00 18.7 C 67 % 12.45 C
1870 12-08-2014 11:45:00 18.8 C 65 % 12.09 C
1871 12-08-2014 11:50:00 19.1 C 67 % 12.83 C
1872 12-08-2014 11:55:00 19.3 C 64 % 12.32 C
1873 12-08-2014 12:00:00 19.3 C 61 % 11.6 C
1874 12-08-2014 12:05:00 19.3 C 62 % 11.84 C
1875 12-08-2014 12:10:00 19.4 C 60 % 11.44 C
Sensor: Nr:Datum:Temp:Feuchte:Taupunkt:
Aussen-T/F 1876 12-08-2014 12:15:00 19.7 C 60 % 11.72 C
1877 12-08-2014 12:20:00 19.7 C 58 % 11.21 C
1878 12-08-2014 12:25:00 19.7 C 56 % 10.68 C
1879 12-08-2014 12:30:00 19.8 C 58 % 11.3 C
1880 12-08-2014 12:35:00 19.9 C 57 % 11.14 C
1881 12-08-2014 12:40:00 20.1 C 55 % 10.78 C
1882 12-08-2014 12:45:00 20.1 C 58 % 11.58 C
1883 12-08-2014 12:50:00 20.3 C 56 % 11.24 C
1884 12-08-2014 12:55:00 20.4 C 55 % 11.06 C
1885 12-08-2014 13:00:00 20.5 C 55 % 11.16 C
1886 12-08-2014 13:05:00 20.4 C 57 % 11.6 C
1887 12-08-2014 13:10:00 20.6 C 56 % 11.52 C
1888 12-08-2014 13:15:00 20.5 C 54 % 10.88 C
1889 12-08-2014 13:20:00 20.3 C 53 % 10.41 C
1890 12-08-2014 13:25:00 19.9 C 54 % 10.32 C
1891 12-08-2014 13:30:00 19.9 C 56 % 10.87 C
1892 12-08-2014 13:35:00 20.3 C 56 % 11.24 C
1893 12-08-2014 13:40:00 20.6 C 53 % 10.69 C
1894 12-08-2014 13:45:00 20.8 C 56 % 11.71 C
1895 12-08-2014 13:50:00 20.9 C 54 % 11.25 C
1896 12-08-2014 13:55:00 20.9 C 53 % 10.97 C
1897 12-08-2014 14:00:00 21.2 C 52 % 10.96 C
1898 12-08-2014 14:05:00 21.3 C 52 % 11.05 C
1899 12-08-2014 14:10:00 21.4 C 52 % 11.14 C
1900 12-08-2014 14:15:00 21.2 C 51 % 10.67 C
Sensor: Nr:Datum:Temp:Feuchte:Taupunkt:
Aussen-T/F 1901 12-08-2014 14:20:00 21 C 54 % 11.34 C
1902 12-08-2014 14:25:00 21.2 C 54 % 11.53 C
1903 12-08-2014 14:30:00 21.6 C 53 % 11.62 C
1904 12-08-2014 14:35:00 21.8 C 52 % 11.51 C
1905 12-08-2014 14:40:00 21.9 C 57 % 13 C
1906 12-08-2014 14:45:00 22.1 C 52 % 11.79 C
1907 12-08-2014 14:50:00 22.2 C 51 % 11.59 C
1908 12-08-2014 14:55:00 22.2 C 51 % 11.59 C
1909 12-08-2014 15:00:00 22.3 C 52 % 11.97 C
1910 12-08-2014 15:05:00 22.3 C 49 % 11.08 C
1911 12-08-2014 15:10:00 22.3 C 49 % 11.08 C
1912 12-08-2014 15:15:00 22.6 C 49 % 11.35 C
1913 12-08-2014 15:20:00 22.7 C 50 % 11.75 C
1914 12-08-2014 15:25:00 22.8 C 48 % 11.22 C
1915 12-08-2014 15:30:00 22.9 C 49 % 11.63 C
1916 12-08-2014 15:35:00 23 C 47 % 11.09 C
1917 12-08-2014 15:40:00 23.1 C 49 % 11.81 C
1918 12-08-2014 15:45:00 23.1 C 49 % 11.81 C
1919 12-08-2014 15:50:00 23.1 C 47 % 11.18 C
1920 12-08-2014 15:55:00 23.1 C 49 % 11.81 C
1921 12-08-2014 16:00:00 23.1 C 47 % 11.18 C
1922 12-08-2014 16:05:00 23.1 C 48 % 11.5 C
1923 12-08-2014 16:10:00 23.1 C 48 % 11.5 C
1924 12-08-2014 16:15:00 23.3 C 49 % 11.99 C
1925 12-08-2014 16:20:00 23.4 C 47 % 11.45 C
Sensor: Nr:Datum:Temp:Feuchte:Taupunkt:
Aussen-T/F 1926 12-08-2014 16:25:00 23.4 C 48 % 11.77 C
1927 12-08-2014 16:30:00 23.3 C 47 % 11.36 C
1928 12-08-2014 16:35:00 23.4 C 48 % 11.77 C
1929 12-08-2014 16:40:00 23.4 C 47 % 11.45 C
1930 12-08-2014 16:45:00 23.4 C 47 % 11.45 C
1931 12-08-2014 16:50:00 23.4 C 49 % 12.08 C
1932 12-08-2014 16:55:00 23.4 C 49 % 12.08 C
1933 12-08-2014 17:00:00 22.8 C 48 % 11.22 C
1934 12-08-2014 17:05:00 22.3 C 50 % 11.38 C
1935 12-08-2014 17:10:00 22.1 C 51 % 11.5 C
1936 12-08-2014 17:15:00 22.1 C 49 % 10.89 C
1937 12-08-2014 17:20:00 22.1 C 51 % 11.5 C
1938 12-08-2014 17:25:00 22.1 C 49 % 10.89 C
1939 12-08-2014 17:30:00 21.9 C 51 % 11.31 C
1940 12-08-2014 17:35:00 21.9 C 50 % 11.01 C
1941 12-08-2014 17:40:00 22.4 C 50 % 11.47 C
1942 12-08-2014 17:45:00 22.7 C 50 % 11.75 C
1943 12-08-2014 17:50:00 22.7 C 50 % 11.75 C
1944 12-08-2014 17:55:00 22.7 C 50 % 11.75 C
1945 12-08-2014 18:00:00 22.9 C 49 % 11.63 C
1946 12-08-2014 18:05:00 22.8 C 48 % 11.22 C
1947 12-08-2014 18:10:00 22.8 C 49 % 11.53 C
1948 12-08-2014 18:15:00 22.9 C 48 % 11.31 C
1949 12-08-2014 18:20:00 22.9 C 50 % 11.93 C
1950 12-08-2014 18:25:00 23 C 50 % 12.02 C
Sensor: Nr:Datum:Temp:Feuchte:Taupunkt:
Aussen-T/F 1951 12-08-2014 18:30:00 22.7 C 52 % 12.34 C
1952 12-08-2014 18:35:00 22 C 53 % 11.99 C
1953 12-08-2014 18:40:00 21.4 C 54 % 11.71 C
1954 12-08-2014 18:45:00 21.1 C 56 % 11.99 C
1955 12-08-2014 18:50:00 20.8 C 56 % 11.71 C
1956 12-08-2014 18:55:00 20.7 C 61 % 12.91 C
1957 12-08-2014 19:00:00 20.7 C 59 % 12.41 C
1958 12-08-2014 19:05:00 20.7 C 61 % 12.91 C
1959 12-08-2014 19:10:00 20.9 C 62 % 13.35 C
1960 12-08-2014 19:15:00 21.3 C 59 % 12.97 C
1961 12-08-2014 19:20:00 21.5 C 64 % 14.41 C
1962 12-08-2014 19:25:00 21.4 C 59 % 13.06 C
1963 12-08-2014 19:30:00 21.4 C 61 % 13.57 C
1964 12-08-2014 19:35:00 21.3 C 65 % 14.46 C
1965 12-08-2014 19:40:00 21 C 64 % 13.93 C
1966 12-08-2014 19:45:00 20.8 C 60 % 12.76 C
1967 12-08-2014 19:50:00 20.8 C 60 % 12.76 C
1968 12-08-2014 19:55:00 20.7 C 64 % 13.65 C
1969 12-08-2014 20:00:00 20.3 C 68 % 14.2 C
1970 12-08-2014 20:05:00 19.8 C 69 % 13.95 C
1971 12-08-2014 20:10:00 19.3 C 72 % 14.13 C
1972 12-08-2014 20:15:00 19 C 67 % 12.74 C
1973 12-08-2014 20:20:00 18.7 C 73 % 13.76 C
1974 12-08-2014 20:25:00 18.3 C 73 % 13.38 C
1975 12-08-2014 20:30:00 18 C 75 % 13.51 C
Sensor: Nr:Datum:Temp:Feuchte:Taupunkt:
Aussen-T/F 1976 12-08-2014 20:35:00 17.8 C 71 % 12.47 C
1977 12-08-2014 20:40:00 17.8 C 75 % 13.31 C
1978 12-08-2014 20:45:00 17.6 C 74 % 12.91 C
1979 12-08-2014 20:50:00 17.6 C 74 % 12.91 C
1980 12-08-2014 20:55:00 17.4 C 70 % 11.88 C
1981 12-08-2014 21:00:00 17.3 C 75 % 12.83 C
1982 12-08-2014 21:05:00 17.2 C 76 % 12.94 C
1983 12-08-2014 21:10:00 17.1 C 76 % 12.84 C
1984 12-08-2014 21:15:00 17.1 C 72 % 12.02 C
1985 12-08-2014 21:20:00 17.3 C 75 % 12.83 C
1986 12-08-2014 21:25:00 17.4 C 75 % 12.93 C
1987 12-08-2014 21:30:00 17.3 C 73 % 12.42 C
1988 12-08-2014 21:35:00 17.3 C 77 % 13.23 C
1989 12-08-2014 21:40:00 17.2 C 78 % 13.33 C
1990 12-08-2014 21:45:00 17.1 C 78 % 13.24 C
1991 12-08-2014 21:50:00 16.9 C 79 % 13.24 C
1992 12-08-2014 21:55:00 16.8 C 79 % 13.14 C
1993 12-08-2014 22:00:00 16.7 C 80 % 13.23 C
1994 12-08-2014 22:05:00 16.7 C 80 % 13.23 C
1995 12-08-2014 22:10:00 16.6 C 79 % 12.95 C
1996 12-08-2014 22:15:00 16.7 C 76 % 12.45 C
1997 12-08-2014 22:20:00 16.8 C 74 % 12.14 C
1998 12-08-2014 22:25:00 16.8 C 77 % 12.75 C
1999 12-08-2014 22:30:00 16.6 C 76 % 12.36 C
2000 12-08-2014 22:35:00 16.4 C 76 % 12.16 C
Sensor: Nr:Datum:Temp:Feuchte:Taupunkt:
Aussen-T/F 2001 12-08-2014 22:40:00 16.3 C 77 % 12.26 C
2002 12-08-2014 22:45:00 16.1 C 78 % 12.27 C
2003 12-08-2014 22:50:00 15.7 C 79 % 12.07 C
2004 12-08-2014 22:55:00 15.6 C 81 % 12.35 C
2005 12-08-2014 23:00:00 15.3 C 80 % 11.87 C
2006 12-08-2014 23:05:00 15.3 C 82 % 12.25 C
2007 12-08-2014 23:10:00 15.2 C 81 % 11.96 C
2008 12-08-2014 23:15:00 15.2 C 83 % 12.33 C
2009 12-08-2014 23:20:00 15.2 C 82 % 12.15 C
2010 12-08-2014 23:25:00 15.2 C 83 % 12.33 C
2011 12-08-2014 23:30:00 15.1 C 83 % 12.24 C
2012 12-08-2014 23:35:00 14.9 C 82 % 11.86 C
2013 12-08-2014 23:40:00 14.9 C 83 % 12.04 C
2014 12-08-2014 23:45:00 14.8 C 84 % 12.12 C
2015 12-08-2014 23:50:00 14.8 C 85 % 12.3 C
2016 12-08-2014 23:55:00 14.8 C 84 % 12.12 C

Legende:
   Min
   Max


Maximal/Minimal-Werte vom 06.08.2014 - 12.08.2014

Sensor Min Max Avg
Temp
(Aussen-T/F)
12.6 °C
06-08-2014  06:00:00
27.3 °C
08-08-2014  14:05:00
18.47 °C
Feuchte
(Aussen-T/F)
43 %
06-08-2014  14:40:00
98 %
07-08-2014  05:45:00
83.37 %
Taupunkt
(Aussen-T/F)
10.32 C
12-08-2014  13:25:00
20.74 C
10-08-2014  14:45:00
15.29 C

Die Daten stammen von einer Davis Vantage Pro 2 Wetter-Station und werden unter Linux mit der Software wview2wettercgi und aufbereitet. Alle Angaben erfolgen ohne Gewähr für ihre Vollständigkeit oder Richtigkeit.
Kontakt: Rainer Krienke krienke@uni-koblenz.de . Meine Webseiten an der Uni Koblenz oder privat.
Version: $Revision: 0.78 $